<?xml version="1.0" encoding="UTF-8" standalone="no" ?>
<gpx xmlns="http://www.topografix.com/GPX/1/1" xmlns:xsi="http://www.w3.org/2001/XMLSchema-instance" xsi:schemaLocation="http://www.topografix.com/GPX/1/1 http://www.topografix.com/GPX/1/1/gpx.xsd" version="1.1" creator="VisuGPX - https://www.visugpx.com">
  <metadata>
    <name>sortie 14 janvier 2014_bacquerot_ gouffie _jourdas</name>
    <desc><![CDATA[[b][url][img][/img][/url][/b]]]></desc>
  </metadata>
  <wpt lat="44.23162" lon="0.70894">
    <ele>163</ele>
    <name><![CDATA[Bacquerot]]></name>
    <desc><![CDATA[Bacquerot]]></desc>
    <cmt><![CDATA[Bacquerot]]></cmt>
  </wpt>
  <wpt lat="44.23382" lon="0.69055">
    <ele>71</ele>
    <name><![CDATA[Chemin]]></name>
    <desc><![CDATA[Chemin]]></desc>
    <cmt><![CDATA[Chemin]]></cmt>
  </wpt>
  <wpt lat="44.24608" lon="0.68691">
    <ele>90</ele>
    <name><![CDATA[Chemin1 descente]]></name>
    <desc><![CDATA[Chemin]]></desc>
    <cmt><![CDATA[Chemin]]></cmt>
  </wpt>
  <wpt lat="44.234" lon="0.71684">
    <ele>162</ele>
    <name><![CDATA[clapiés]]></name>
    <desc><![CDATA[Route et Chemin]]></desc>
    <cmt><![CDATA[Route et Chemin]]></cmt>
  </wpt>
  <wpt lat="44.24428" lon="0.69085">
    <ele>158.3867188</ele>
    <name><![CDATA[Jourda]]></name>
    <desc><![CDATA[Jourda]]></desc>
    <cmt><![CDATA[Jourda]]></cmt>
  </wpt>
  <wpt lat="44.24561" lon="0.69838">
    <ele>176</ele>
    <name><![CDATA[La Goufie]]></name>
    <desc><![CDATA[La Goufie]]></desc>
    <cmt><![CDATA[La Goufie]]></cmt>
  </wpt>
  <wpt lat="44.24232" lon="0.68041">
    <ele>71</ele>
    <name><![CDATA[La Masse]]></name>
    <desc><![CDATA[La Masse]]></desc>
    <cmt><![CDATA[La Masse]]></cmt>
  </wpt>
  <wpt lat="44.24475" lon="0.683">
    <ele>74</ele>
    <name><![CDATA[Preceptis]]></name>
    <desc><![CDATA[Preceptis]]></desc>
    <cmt><![CDATA[Preceptis]]></cmt>
  </wpt>
  <wpt lat="44.23244" lon="0.71398">
    <ele>156</ele>
    <name><![CDATA[Route]]></name>
    <desc><![CDATA[Route]]></desc>
    <cmt><![CDATA[Route]]></cmt>
  </wpt>
  <wpt lat="44.24581" lon="0.69431">
    <ele>172</ele>
    <name><![CDATA[Route1]]></name>
    <desc><![CDATA[Route]]></desc>
    <cmt><![CDATA[Route]]></cmt>
  </wpt>
  <wpt lat="44.24536" lon="0.71605">
    <ele>105</ele>
    <name><![CDATA[samedi 11 janvier 2014]]></name>
    <desc><![CDATA[105 m]]></desc>
    <cmt><![CDATA[105 m]]></cmt>
  </wpt>
  <wpt lat="44.23312" lon="0.70234">
    <ele>99</ele>
    <name><![CDATA[v_ n09_montée]]></name>
    <desc><![CDATA[Cours d'Eau intermittent]]></desc>
    <cmt><![CDATA[Cours d'Eau intermittent]]></cmt>
  </wpt>
  <trk>
    <name><![CDATA[ACTIVE LOG 001]]></name>
    <trkseg>
      <trkpt lat="44.2327" lon="0.68242">
        <ele>27.0543213</ele>
        <time>2014-01-11T07:59:39Z</time>
      </trkpt>
      <trkpt lat="44.23267" lon="0.68298">
        <ele>55.8937988</ele>
        <time>2014-01-11T08:02:51Z</time>
      </trkpt>
      <trkpt lat="44.23262" lon="0.68311">
        <ele>54.932373</ele>
        <time>2014-01-11T08:03:00Z</time>
      </trkpt>
      <trkpt lat="44.23263" lon="0.68326">
        <ele>55.4130859</ele>
        <time>2014-01-11T08:03:08Z</time>
      </trkpt>
      <trkpt lat="44.23265" lon="0.68339">
        <ele>55.8937988</ele>
        <time>2014-01-11T08:03:16Z</time>
      </trkpt>
      <trkpt lat="44.23266" lon="0.68352">
        <ele>55.8937988</ele>
        <time>2014-01-11T08:03:24Z</time>
      </trkpt>
      <trkpt lat="44.23266" lon="0.68366">
        <ele>55.8937988</ele>
        <time>2014-01-11T08:03:32Z</time>
      </trkpt>
      <trkpt lat="44.23269" lon="0.68378">
        <ele>56.3745117</ele>
        <time>2014-01-11T08:03:40Z</time>
      </trkpt>
      <trkpt lat="44.23271" lon="0.68392">
        <ele>58.2971191</ele>
        <time>2014-01-11T08:03:47Z</time>
      </trkpt>
      <trkpt lat="44.23274" lon="0.68405">
        <ele>58.2971191</ele>
        <time>2014-01-11T08:03:55Z</time>
      </trkpt>
      <trkpt lat="44.23275" lon="0.68418">
        <ele>57.3358154</ele>
        <time>2014-01-11T08:04:03Z</time>
      </trkpt>
      <trkpt lat="44.23279" lon="0.68431">
        <ele>57.8165283</ele>
        <time>2014-01-11T08:04:11Z</time>
      </trkpt>
      <trkpt lat="44.23282" lon="0.68443">
        <ele>57.3358154</ele>
        <time>2014-01-11T08:04:19Z</time>
      </trkpt>
      <trkpt lat="44.23285" lon="0.68454">
        <ele>57.3358154</ele>
        <time>2014-01-11T08:04:26Z</time>
      </trkpt>
      <trkpt lat="44.23289" lon="0.68467">
        <ele>58.2971191</ele>
        <time>2014-01-11T08:04:34Z</time>
      </trkpt>
      <trkpt lat="44.23293" lon="0.68479">
        <ele>57.3358154</ele>
        <time>2014-01-11T08:04:42Z</time>
      </trkpt>
      <trkpt lat="44.23296" lon="0.6849">
        <ele>55.8937988</ele>
        <time>2014-01-11T08:04:50Z</time>
      </trkpt>
      <trkpt lat="44.23299" lon="0.68501">
        <ele>55.4130859</ele>
        <time>2014-01-11T08:04:59Z</time>
      </trkpt>
      <trkpt lat="44.23303" lon="0.68514">
        <ele>52.048584</ele>
        <time>2014-01-11T08:05:08Z</time>
      </trkpt>
      <trkpt lat="44.23309" lon="0.68527">
        <ele>50.1259766</ele>
        <time>2014-01-11T08:05:17Z</time>
      </trkpt>
      <trkpt lat="44.23312" lon="0.6854">
        <ele>53.0097656</ele>
        <time>2014-01-11T08:05:25Z</time>
      </trkpt>
      <trkpt lat="44.23315" lon="0.68553">
        <ele>54.4517822</ele>
        <time>2014-01-11T08:05:32Z</time>
      </trkpt>
      <trkpt lat="44.23317" lon="0.68566">
        <ele>56.8551025</ele>
        <time>2014-01-11T08:05:39Z</time>
      </trkpt>
      <trkpt lat="44.23318" lon="0.68578">
        <ele>58.77771</ele>
        <time>2014-01-11T08:05:47Z</time>
      </trkpt>
      <trkpt lat="44.23318" lon="0.68592">
        <ele>60.2197266</ele>
        <time>2014-01-11T08:05:55Z</time>
      </trkpt>
      <trkpt lat="44.23318" lon="0.68604">
        <ele>60.7003174</ele>
        <time>2014-01-11T08:06:03Z</time>
      </trkpt>
      <trkpt lat="44.23318" lon="0.68617">
        <ele>60.2197266</ele>
        <time>2014-01-11T08:06:11Z</time>
      </trkpt>
      <trkpt lat="44.23319" lon="0.68631">
        <ele>60.2197266</ele>
        <time>2014-01-11T08:06:19Z</time>
      </trkpt>
      <trkpt lat="44.23318" lon="0.68645">
        <ele>61.6617432</ele>
        <time>2014-01-11T08:06:27Z</time>
      </trkpt>
      <trkpt lat="44.23318" lon="0.68658">
        <ele>63.1036377</ele>
        <time>2014-01-11T08:06:35Z</time>
      </trkpt>
      <trkpt lat="44.23318" lon="0.68672">
        <ele>63.5843506</ele>
        <time>2014-01-11T08:06:43Z</time>
      </trkpt>
      <trkpt lat="44.23319" lon="0.68686">
        <ele>65.0263672</ele>
        <time>2014-01-11T08:06:50Z</time>
      </trkpt>
      <trkpt lat="44.23321" lon="0.68698">
        <ele>66.4682617</ele>
        <time>2014-01-11T08:06:58Z</time>
      </trkpt>
      <trkpt lat="44.23322" lon="0.68708">
        <ele>63.5843506</ele>
        <time>2014-01-11T08:07:10Z</time>
      </trkpt>
      <trkpt lat="44.23322" lon="0.68721">
        <ele>63.1036377</ele>
        <time>2014-01-11T08:07:18Z</time>
      </trkpt>
      <trkpt lat="44.23323" lon="0.68734">
        <ele>63.5843506</ele>
        <time>2014-01-11T08:07:27Z</time>
      </trkpt>
      <trkpt lat="44.23325" lon="0.68747">
        <ele>62.6229248</ele>
        <time>2014-01-11T08:07:36Z</time>
      </trkpt>
      <trkpt lat="44.23325" lon="0.68761">
        <ele>63.1036377</ele>
        <time>2014-01-11T08:07:45Z</time>
      </trkpt>
      <trkpt lat="44.23326" lon="0.68773">
        <ele>62.142334</ele>
        <time>2014-01-11T08:07:54Z</time>
      </trkpt>
      <trkpt lat="44.23328" lon="0.68786">
        <ele>61.6617432</ele>
        <time>2014-01-11T08:08:04Z</time>
      </trkpt>
      <trkpt lat="44.23328" lon="0.688">
        <ele>64.5456543</ele>
        <time>2014-01-11T08:08:14Z</time>
      </trkpt>
      <trkpt lat="44.2333" lon="0.68812">
        <ele>63.1036377</ele>
        <time>2014-01-11T08:08:22Z</time>
      </trkpt>
      <trkpt lat="44.23331" lon="0.68827">
        <ele>66.9489746</ele>
        <time>2014-01-11T08:08:31Z</time>
      </trkpt>
      <trkpt lat="44.23334" lon="0.68837">
        <ele>66.4682617</ele>
        <time>2014-01-11T08:08:39Z</time>
      </trkpt>
      <trkpt lat="44.23337" lon="0.68848">
        <ele>67.9102783</ele>
        <time>2014-01-11T08:08:49Z</time>
      </trkpt>
      <trkpt lat="44.23342" lon="0.6886">
        <ele>66.4682617</ele>
        <time>2014-01-11T08:08:58Z</time>
      </trkpt>
      <trkpt lat="44.23346" lon="0.68872">
        <ele>67.4296875</ele>
        <time>2014-01-11T08:09:07Z</time>
      </trkpt>
      <trkpt lat="44.23349" lon="0.68885">
        <ele>67.4296875</ele>
        <time>2014-01-11T08:09:16Z</time>
      </trkpt>
      <trkpt lat="44.23352" lon="0.68896">
        <ele>67.4296875</ele>
        <time>2014-01-11T08:09:25Z</time>
      </trkpt>
      <trkpt lat="44.23355" lon="0.68908">
        <ele>66.9489746</ele>
        <time>2014-01-11T08:09:34Z</time>
      </trkpt>
      <trkpt lat="44.23357" lon="0.6892">
        <ele>67.4296875</ele>
        <time>2014-01-11T08:09:43Z</time>
      </trkpt>
      <trkpt lat="44.23358" lon="0.68932">
        <ele>69.3522949</ele>
        <time>2014-01-11T08:09:52Z</time>
      </trkpt>
      <trkpt lat="44.2336" lon="0.68943">
        <ele>70.7941895</ele>
        <time>2014-01-11T08:10:00Z</time>
      </trkpt>
      <trkpt lat="44.23364" lon="0.68954">
        <ele>68.871582</ele>
        <time>2014-01-11T08:10:10Z</time>
      </trkpt>
      <trkpt lat="44.23367" lon="0.68967">
        <ele>67.4296875</ele>
        <time>2014-01-11T08:10:20Z</time>
      </trkpt>
      <trkpt lat="44.23369" lon="0.6898">
        <ele>66.9489746</ele>
        <time>2014-01-11T08:10:29Z</time>
      </trkpt>
      <trkpt lat="44.23371" lon="0.68992">
        <ele>67.4296875</ele>
        <time>2014-01-11T08:10:38Z</time>
      </trkpt>
      <trkpt lat="44.23373" lon="0.69006">
        <ele>67.9102783</ele>
        <time>2014-01-11T08:10:47Z</time>
      </trkpt>
      <trkpt lat="44.23374" lon="0.69017">
        <ele>67.4296875</ele>
        <time>2014-01-11T08:10:55Z</time>
      </trkpt>
      <trkpt lat="44.23376" lon="0.6903">
        <ele>68.3908691</ele>
        <time>2014-01-11T08:11:03Z</time>
      </trkpt>
      <trkpt lat="44.23379" lon="0.69043">
        <ele>67.4296875</ele>
        <time>2014-01-11T08:11:12Z</time>
      </trkpt>
      <trkpt lat="44.23381" lon="0.69055">
        <ele>66.4682617</ele>
        <time>2014-01-11T08:11:21Z</time>
      </trkpt>
      <trkpt lat="44.23384" lon="0.69068">
        <ele>65.9876709</ele>
        <time>2014-01-11T08:11:30Z</time>
      </trkpt>
      <trkpt lat="44.23386" lon="0.69078">
        <ele>64.0650635</ele>
        <time>2014-01-11T08:11:40Z</time>
      </trkpt>
      <trkpt lat="44.23389" lon="0.69092">
        <ele>65.9876709</ele>
        <time>2014-01-11T08:11:50Z</time>
      </trkpt>
      <trkpt lat="44.23391" lon="0.69104">
        <ele>67.9102783</ele>
        <time>2014-01-11T08:11:58Z</time>
      </trkpt>
      <trkpt lat="44.23389" lon="0.69115">
        <ele>67.9102783</ele>
        <time>2014-01-11T08:12:07Z</time>
      </trkpt>
      <trkpt lat="44.2339" lon="0.69124">
        <ele>67.4296875</ele>
        <time>2014-01-11T08:12:21Z</time>
      </trkpt>
      <trkpt lat="44.23387" lon="0.69138">
        <ele>65.5070801</ele>
        <time>2014-01-11T08:12:32Z</time>
      </trkpt>
      <trkpt lat="44.23386" lon="0.69151">
        <ele>65.0263672</ele>
        <time>2014-01-11T08:12:41Z</time>
      </trkpt>
      <trkpt lat="44.23384" lon="0.69165">
        <ele>64.0650635</ele>
        <time>2014-01-11T08:12:50Z</time>
      </trkpt>
      <trkpt lat="44.23382" lon="0.69178">
        <ele>65.9876709</ele>
        <time>2014-01-11T08:12:58Z</time>
      </trkpt>
      <trkpt lat="44.23381" lon="0.69189">
        <ele>65.5070801</ele>
        <time>2014-01-11T08:13:07Z</time>
      </trkpt>
      <trkpt lat="44.23379" lon="0.69202">
        <ele>66.4682617</ele>
        <time>2014-01-11T08:13:17Z</time>
      </trkpt>
      <trkpt lat="44.23379" lon="0.69215">
        <ele>66.4682617</ele>
        <time>2014-01-11T08:13:27Z</time>
      </trkpt>
      <trkpt lat="44.23374" lon="0.69225">
        <ele>66.9489746</ele>
        <time>2014-01-11T08:13:38Z</time>
      </trkpt>
      <trkpt lat="44.23375" lon="0.69238">
        <ele>66.9489746</ele>
        <time>2014-01-11T08:13:50Z</time>
      </trkpt>
      <trkpt lat="44.23379" lon="0.6925">
        <ele>69.8328857</ele>
        <time>2014-01-11T08:14:02Z</time>
      </trkpt>
      <trkpt lat="44.2338" lon="0.69265">
        <ele>69.8328857</ele>
        <time>2014-01-11T08:14:13Z</time>
      </trkpt>
      <trkpt lat="44.23381" lon="0.69278">
        <ele>69.3522949</ele>
        <time>2014-01-11T08:14:21Z</time>
      </trkpt>
      <trkpt lat="44.23382" lon="0.6929">
        <ele>66.4682617</ele>
        <time>2014-01-11T08:14:32Z</time>
      </trkpt>
      <trkpt lat="44.23384" lon="0.69304">
        <ele>64.5456543</ele>
        <time>2014-01-11T08:14:43Z</time>
      </trkpt>
      <trkpt lat="44.23385" lon="0.69318">
        <ele>64.5456543</ele>
        <time>2014-01-11T08:14:52Z</time>
      </trkpt>
      <trkpt lat="44.23386" lon="0.69331">
        <ele>64.5456543</ele>
        <time>2014-01-11T08:15:02Z</time>
      </trkpt>
      <trkpt lat="44.23387" lon="0.69345">
        <ele>64.5456543</ele>
        <time>2014-01-11T08:15:11Z</time>
      </trkpt>
      <trkpt lat="44.23388" lon="0.69357">
        <ele>64.0650635</ele>
        <time>2014-01-11T08:15:20Z</time>
      </trkpt>
      <trkpt lat="44.2339" lon="0.6937">
        <ele>64.0650635</ele>
        <time>2014-01-11T08:15:29Z</time>
      </trkpt>
      <trkpt lat="44.23392" lon="0.69382">
        <ele>65.0263672</ele>
        <time>2014-01-11T08:15:38Z</time>
      </trkpt>
      <trkpt lat="44.23396" lon="0.69397">
        <ele>65.9876709</ele>
        <time>2014-01-11T08:15:47Z</time>
      </trkpt>
      <trkpt lat="44.234" lon="0.69407">
        <ele>65.5070801</ele>
        <time>2014-01-11T08:15:56Z</time>
      </trkpt>
      <trkpt lat="44.23404" lon="0.69418">
        <ele>65.5070801</ele>
        <time>2014-01-11T08:16:05Z</time>
      </trkpt>
      <trkpt lat="44.23409" lon="0.69429">
        <ele>65.9876709</ele>
        <time>2014-01-11T08:16:14Z</time>
      </trkpt>
      <trkpt lat="44.23415" lon="0.69439">
        <ele>64.5456543</ele>
        <time>2014-01-11T08:16:23Z</time>
      </trkpt>
      <trkpt lat="44.23421" lon="0.69449">
        <ele>64.0650635</ele>
        <time>2014-01-11T08:16:33Z</time>
      </trkpt>
      <trkpt lat="44.23428" lon="0.6946">
        <ele>64.5456543</ele>
        <time>2014-01-11T08:16:42Z</time>
      </trkpt>
      <trkpt lat="44.23434" lon="0.6947">
        <ele>64.5456543</ele>
        <time>2014-01-11T08:16:51Z</time>
      </trkpt>
      <trkpt lat="44.23439" lon="0.69479">
        <ele>65.0263672</ele>
        <time>2014-01-11T08:17:00Z</time>
      </trkpt>
      <trkpt lat="44.23444" lon="0.6949">
        <ele>65.5070801</ele>
        <time>2014-01-11T08:17:09Z</time>
      </trkpt>
      <trkpt lat="44.2345" lon="0.695">
        <ele>65.5070801</ele>
        <time>2014-01-11T08:17:18Z</time>
      </trkpt>
      <trkpt lat="44.23456" lon="0.69511">
        <ele>65.5070801</ele>
        <time>2014-01-11T08:17:27Z</time>
      </trkpt>
      <trkpt lat="44.23461" lon="0.69522">
        <ele>66.9489746</ele>
        <time>2014-01-11T08:17:37Z</time>
      </trkpt>
      <trkpt lat="44.23461" lon="0.69534">
        <ele>67.9102783</ele>
        <time>2014-01-11T08:17:47Z</time>
      </trkpt>
      <trkpt lat="44.23462" lon="0.69548">
        <ele>69.8328857</ele>
        <time>2014-01-11T08:17:57Z</time>
      </trkpt>
      <trkpt lat="44.23462" lon="0.6956">
        <ele>69.3522949</ele>
        <time>2014-01-11T08:18:10Z</time>
      </trkpt>
      <trkpt lat="44.23461" lon="0.69573">
        <ele>70.3134766</ele>
        <time>2014-01-11T08:18:20Z</time>
      </trkpt>
      <trkpt lat="44.23462" lon="0.69585">
        <ele>69.3522949</ele>
        <time>2014-01-11T08:18:29Z</time>
      </trkpt>
      <trkpt lat="44.23462" lon="0.69599">
        <ele>70.3134766</ele>
        <time>2014-01-11T08:18:38Z</time>
      </trkpt>
      <trkpt lat="44.23463" lon="0.69611">
        <ele>71.2749023</ele>
        <time>2014-01-11T08:18:46Z</time>
      </trkpt>
      <trkpt lat="44.23464" lon="0.69624">
        <ele>68.871582</ele>
        <time>2014-01-11T08:18:55Z</time>
      </trkpt>
      <trkpt lat="44.23466" lon="0.69638">
        <ele>67.4296875</ele>
        <time>2014-01-11T08:19:05Z</time>
      </trkpt>
      <trkpt lat="44.23473" lon="0.69645">
        <ele>65.9876709</ele>
        <time>2014-01-11T08:19:14Z</time>
      </trkpt>
      <trkpt lat="44.23481" lon="0.69652">
        <ele>65.9876709</ele>
        <time>2014-01-11T08:19:23Z</time>
      </trkpt>
      <trkpt lat="44.23477" lon="0.69663">
        <ele>66.4682617</ele>
        <time>2014-01-11T08:19:32Z</time>
      </trkpt>
      <trkpt lat="44.23468" lon="0.69669">
        <ele>65.9876709</ele>
        <time>2014-01-11T08:19:41Z</time>
      </trkpt>
      <trkpt lat="44.2346" lon="0.69677">
        <ele>66.4682617</ele>
        <time>2014-01-11T08:19:50Z</time>
      </trkpt>
      <trkpt lat="44.23452" lon="0.69683">
        <ele>66.4682617</ele>
        <time>2014-01-11T08:19:59Z</time>
      </trkpt>
      <trkpt lat="44.23444" lon="0.69692">
        <ele>65.5070801</ele>
        <time>2014-01-11T08:20:08Z</time>
      </trkpt>
      <trkpt lat="44.23435" lon="0.697">
        <ele>65.5070801</ele>
        <time>2014-01-11T08:20:17Z</time>
      </trkpt>
      <trkpt lat="44.23427" lon="0.69708">
        <ele>65.9876709</ele>
        <time>2014-01-11T08:20:25Z</time>
      </trkpt>
      <trkpt lat="44.2342" lon="0.69717">
        <ele>65.9876709</ele>
        <time>2014-01-11T08:20:34Z</time>
      </trkpt>
      <trkpt lat="44.23412" lon="0.69726">
        <ele>66.4682617</ele>
        <time>2014-01-11T08:20:43Z</time>
      </trkpt>
      <trkpt lat="44.23405" lon="0.69735">
        <ele>67.4296875</ele>
        <time>2014-01-11T08:20:52Z</time>
      </trkpt>
      <trkpt lat="44.23397" lon="0.69744">
        <ele>66.9489746</ele>
        <time>2014-01-11T08:21:01Z</time>
      </trkpt>
      <trkpt lat="44.2339" lon="0.69753">
        <ele>66.4682617</ele>
        <time>2014-01-11T08:21:09Z</time>
      </trkpt>
      <trkpt lat="44.23383" lon="0.69762">
        <ele>66.4682617</ele>
        <time>2014-01-11T08:21:17Z</time>
      </trkpt>
      <trkpt lat="44.23375" lon="0.69769">
        <ele>66.9489746</ele>
        <time>2014-01-11T08:21:25Z</time>
      </trkpt>
      <trkpt lat="44.23367" lon="0.69777">
        <ele>67.9102783</ele>
        <time>2014-01-11T08:21:33Z</time>
      </trkpt>
      <trkpt lat="44.23359" lon="0.69783">
        <ele>68.3908691</ele>
        <time>2014-01-11T08:21:41Z</time>
      </trkpt>
      <trkpt lat="44.23351" lon="0.6979">
        <ele>68.871582</ele>
        <time>2014-01-11T08:21:49Z</time>
      </trkpt>
      <trkpt lat="44.23343" lon="0.69798">
        <ele>68.3908691</ele>
        <time>2014-01-11T08:21:57Z</time>
      </trkpt>
      <trkpt lat="44.2334" lon="0.69811">
        <ele>69.3522949</ele>
        <time>2014-01-11T08:22:06Z</time>
      </trkpt>
      <trkpt lat="44.23343" lon="0.69825">
        <ele>70.3134766</ele>
        <time>2014-01-11T08:22:15Z</time>
      </trkpt>
      <trkpt lat="44.23345" lon="0.69838">
        <ele>70.3134766</ele>
        <time>2014-01-11T08:22:24Z</time>
      </trkpt>
      <trkpt lat="44.23348" lon="0.69851">
        <ele>71.2749023</ele>
        <time>2014-01-11T08:22:32Z</time>
      </trkpt>
      <trkpt lat="44.2335" lon="0.69864">
        <ele>71.2749023</ele>
        <time>2014-01-11T08:22:40Z</time>
      </trkpt>
      <trkpt lat="44.23352" lon="0.69877">
        <ele>70.7941895</ele>
        <time>2014-01-11T08:22:49Z</time>
      </trkpt>
      <trkpt lat="44.23354" lon="0.6989">
        <ele>71.7554932</ele>
        <time>2014-01-11T08:22:58Z</time>
      </trkpt>
      <trkpt lat="44.23355" lon="0.69903">
        <ele>72.7169189</ele>
        <time>2014-01-11T08:23:07Z</time>
      </trkpt>
      <trkpt lat="44.23355" lon="0.69915">
        <ele>73.1976318</ele>
        <time>2014-01-11T08:23:15Z</time>
      </trkpt>
      <trkpt lat="44.23356" lon="0.69929">
        <ele>73.6782227</ele>
        <time>2014-01-11T08:23:24Z</time>
      </trkpt>
      <trkpt lat="44.23357" lon="0.69942">
        <ele>77.0428467</ele>
        <time>2014-01-11T08:23:33Z</time>
      </trkpt>
      <trkpt lat="44.23356" lon="0.69955">
        <ele>79.4460449</ele>
        <time>2014-01-11T08:23:43Z</time>
      </trkpt>
      <trkpt lat="44.23355" lon="0.69969">
        <ele>82.3300781</ele>
        <time>2014-01-11T08:23:54Z</time>
      </trkpt>
      <trkpt lat="44.23354" lon="0.69982">
        <ele>85.6945801</ele>
        <time>2014-01-11T08:24:04Z</time>
      </trkpt>
      <trkpt lat="44.23353" lon="0.69995">
        <ele>84.7333984</ele>
        <time>2014-01-11T08:24:15Z</time>
      </trkpt>
      <trkpt lat="44.2335" lon="0.70007">
        <ele>83.7719727</ele>
        <time>2014-01-11T08:24:25Z</time>
      </trkpt>
      <trkpt lat="44.23349" lon="0.70023">
        <ele>85.6945801</ele>
        <time>2014-01-11T08:24:36Z</time>
      </trkpt>
      <trkpt lat="44.23349" lon="0.70036">
        <ele>85.6945801</ele>
        <time>2014-01-11T08:24:48Z</time>
      </trkpt>
      <trkpt lat="44.23351" lon="0.7005">
        <ele>88.0980225</ele>
        <time>2014-01-11T08:25:02Z</time>
      </trkpt>
      <trkpt lat="44.23352" lon="0.70065">
        <ele>90.9819336</ele>
        <time>2014-01-11T08:25:17Z</time>
      </trkpt>
      <trkpt lat="44.23352" lon="0.70078">
        <ele>92.4239502</ele>
        <time>2014-01-11T08:25:29Z</time>
      </trkpt>
      <trkpt lat="44.23349" lon="0.70092">
        <ele>93.3851318</ele>
        <time>2014-01-11T08:25:40Z</time>
      </trkpt>
      <trkpt lat="44.23348" lon="0.70107">
        <ele>96.2692871</ele>
        <time>2014-01-11T08:25:53Z</time>
      </trkpt>
      <trkpt lat="44.23345" lon="0.70123">
        <ele>99.6337891</ele>
        <time>2014-01-11T08:26:09Z</time>
      </trkpt>
      <trkpt lat="44.2334" lon="0.70138">
        <ele>98.1918945</ele>
        <time>2014-01-11T08:26:20Z</time>
      </trkpt>
      <trkpt lat="44.23337" lon="0.70151">
        <ele>94.3465576</ele>
        <time>2014-01-11T08:26:33Z</time>
      </trkpt>
      <trkpt lat="44.23334" lon="0.70167">
        <ele>90.5013428</ele>
        <time>2014-01-11T08:26:48Z</time>
      </trkpt>
      <trkpt lat="44.2333" lon="0.7018">
        <ele>90.9819336</ele>
        <time>2014-01-11T08:26:59Z</time>
      </trkpt>
      <trkpt lat="44.23327" lon="0.70195">
        <ele>88.5787354</ele>
        <time>2014-01-11T08:27:11Z</time>
      </trkpt>
      <trkpt lat="44.23323" lon="0.7021">
        <ele>87.6171875</ele>
        <time>2014-01-11T08:27:23Z</time>
      </trkpt>
      <trkpt lat="44.23319" lon="0.70222">
        <ele>87.6171875</ele>
        <time>2014-01-11T08:27:34Z</time>
      </trkpt>
      <trkpt lat="44.23316" lon="0.70238">
        <ele>87.6171875</ele>
        <time>2014-01-11T08:27:45Z</time>
      </trkpt>
      <trkpt lat="44.23311" lon="0.70255">
        <ele>89.0593262</ele>
        <time>2014-01-11T08:27:58Z</time>
      </trkpt>
      <trkpt lat="44.23306" lon="0.70268">
        <ele>87.6171875</ele>
        <time>2014-01-11T08:28:09Z</time>
      </trkpt>
      <trkpt lat="44.23301" lon="0.7028">
        <ele>88.5787354</ele>
        <time>2014-01-11T08:28:19Z</time>
      </trkpt>
      <trkpt lat="44.23294" lon="0.7029">
        <ele>88.5787354</ele>
        <time>2014-01-11T08:28:29Z</time>
      </trkpt>
      <trkpt lat="44.23287" lon="0.70299">
        <ele>88.5787354</ele>
        <time>2014-01-11T08:28:39Z</time>
      </trkpt>
      <trkpt lat="44.23281" lon="0.70309">
        <ele>89.0593262</ele>
        <time>2014-01-11T08:28:49Z</time>
      </trkpt>
      <trkpt lat="44.23274" lon="0.70319">
        <ele>90.0206299</ele>
        <time>2014-01-11T08:28:59Z</time>
      </trkpt>
      <trkpt lat="44.23269" lon="0.70329">
        <ele>91.9432373</ele>
        <time>2014-01-11T08:29:09Z</time>
      </trkpt>
      <trkpt lat="44.23267" lon="0.70342">
        <ele>92.4239502</ele>
        <time>2014-01-11T08:29:24Z</time>
      </trkpt>
      <trkpt lat="44.23264" lon="0.70352">
        <ele>93.3851318</ele>
        <time>2014-01-11T08:29:55Z</time>
      </trkpt>
      <trkpt lat="44.23261" lon="0.70364">
        <ele>92.4239502</ele>
        <time>2014-01-11T08:30:07Z</time>
      </trkpt>
      <trkpt lat="44.23257" lon="0.70376">
        <ele>92.904541</ele>
        <time>2014-01-11T08:30:18Z</time>
      </trkpt>
      <trkpt lat="44.23253" lon="0.70389">
        <ele>93.3851318</ele>
        <time>2014-01-11T08:30:28Z</time>
      </trkpt>
      <trkpt lat="44.2325" lon="0.70401">
        <ele>93.8658447</ele>
        <time>2014-01-11T08:30:37Z</time>
      </trkpt>
      <trkpt lat="44.23245" lon="0.70413">
        <ele>93.8658447</ele>
        <time>2014-01-11T08:30:47Z</time>
      </trkpt>
      <trkpt lat="44.23241" lon="0.70424">
        <ele>94.8271484</ele>
        <time>2014-01-11T08:30:56Z</time>
      </trkpt>
      <trkpt lat="44.23238" lon="0.70437">
        <ele>97.2304688</ele>
        <time>2014-01-11T08:31:05Z</time>
      </trkpt>
      <trkpt lat="44.23236" lon="0.70449">
        <ele>97.2304688</ele>
        <time>2014-01-11T08:31:14Z</time>
      </trkpt>
      <trkpt lat="44.23233" lon="0.70461">
        <ele>98.1918945</ele>
        <time>2014-01-11T08:31:24Z</time>
      </trkpt>
      <trkpt lat="44.23232" lon="0.70474">
        <ele>97.7111816</ele>
        <time>2014-01-11T08:31:34Z</time>
      </trkpt>
      <trkpt lat="44.2323" lon="0.70488">
        <ele>98.6724854</ele>
        <time>2014-01-11T08:31:44Z</time>
      </trkpt>
      <trkpt lat="44.23229" lon="0.705">
        <ele>99.6337891</ele>
        <time>2014-01-11T08:31:55Z</time>
      </trkpt>
      <trkpt lat="44.23225" lon="0.70512">
        <ele>99.6337891</ele>
        <time>2014-01-11T08:32:07Z</time>
      </trkpt>
      <trkpt lat="44.23224" lon="0.70526">
        <ele>101.0756836</ele>
        <time>2014-01-11T08:32:18Z</time>
      </trkpt>
      <trkpt lat="44.23221" lon="0.70537">
        <ele>100.114502</ele>
        <time>2014-01-11T08:32:29Z</time>
      </trkpt>
      <trkpt lat="44.23218" lon="0.70549">
        <ele>102.0371094</ele>
        <time>2014-01-11T08:32:41Z</time>
      </trkpt>
      <trkpt lat="44.23215" lon="0.70562">
        <ele>102.998291</ele>
        <time>2014-01-11T08:32:52Z</time>
      </trkpt>
      <trkpt lat="44.2321" lon="0.70573">
        <ele>100.114502</ele>
        <time>2014-01-11T08:33:03Z</time>
      </trkpt>
      <trkpt lat="44.23206" lon="0.70585">
        <ele>100.114502</ele>
        <time>2014-01-11T08:33:14Z</time>
      </trkpt>
      <trkpt lat="44.23201" lon="0.70596">
        <ele>100.114502</ele>
        <time>2014-01-11T08:33:25Z</time>
      </trkpt>
      <trkpt lat="44.23195" lon="0.70609">
        <ele>100.114502</ele>
        <time>2014-01-11T08:33:37Z</time>
      </trkpt>
      <trkpt lat="44.23193" lon="0.7062">
        <ele>102.998291</ele>
        <time>2014-01-11T08:33:49Z</time>
      </trkpt>
      <trkpt lat="44.23191" lon="0.70633">
        <ele>105.4017334</ele>
        <time>2014-01-11T08:34:01Z</time>
      </trkpt>
      <trkpt lat="44.2319" lon="0.70646">
        <ele>106.3630371</ele>
        <time>2014-01-11T08:34:14Z</time>
      </trkpt>
      <trkpt lat="44.23189" lon="0.70662">
        <ele>108.7662354</ele>
        <time>2014-01-11T08:34:28Z</time>
      </trkpt>
      <trkpt lat="44.23189" lon="0.70676">
        <ele>111.1695557</ele>
        <time>2014-01-11T08:34:41Z</time>
      </trkpt>
      <trkpt lat="44.23191" lon="0.70689">
        <ele>112.1309814</ele>
        <time>2014-01-11T08:34:56Z</time>
      </trkpt>
      <trkpt lat="44.23197" lon="0.707">
        <ele>115.4956055</ele>
        <time>2014-01-11T08:35:13Z</time>
      </trkpt>
      <trkpt lat="44.23206" lon="0.70702">
        <ele>116.4567871</ele>
        <time>2014-01-11T08:35:26Z</time>
      </trkpt>
      <trkpt lat="44.23216" lon="0.70701">
        <ele>116.9375</ele>
        <time>2014-01-11T08:35:39Z</time>
      </trkpt>
      <trkpt lat="44.23225" lon="0.70697">
        <ele>116.9375</ele>
        <time>2014-01-11T08:35:51Z</time>
      </trkpt>
      <trkpt lat="44.23234" lon="0.70693">
        <ele>117.4182129</ele>
        <time>2014-01-11T08:36:02Z</time>
      </trkpt>
      <trkpt lat="44.23243" lon="0.70689">
        <ele>117.4182129</ele>
        <time>2014-01-11T08:36:13Z</time>
      </trkpt>
      <trkpt lat="44.23251" lon="0.70685">
        <ele>118.8601074</ele>
        <time>2014-01-11T08:36:24Z</time>
      </trkpt>
      <trkpt lat="44.2326" lon="0.70681">
        <ele>119.3408203</ele>
        <time>2014-01-11T08:36:35Z</time>
      </trkpt>
      <trkpt lat="44.23267" lon="0.70675">
        <ele>120.302124</ele>
        <time>2014-01-11T08:36:47Z</time>
      </trkpt>
      <trkpt lat="44.23275" lon="0.70669">
        <ele>120.7828369</ele>
        <time>2014-01-11T08:37:00Z</time>
      </trkpt>
      <trkpt lat="44.23283" lon="0.70662">
        <ele>120.302124</ele>
        <time>2014-01-11T08:37:13Z</time>
      </trkpt>
      <trkpt lat="44.23291" lon="0.70656">
        <ele>122.7054443</ele>
        <time>2014-01-11T08:37:53Z</time>
      </trkpt>
      <trkpt lat="44.23297" lon="0.70651">
        <ele>123.1861572</ele>
        <time>2014-01-11T08:38:03Z</time>
      </trkpt>
      <trkpt lat="44.23307" lon="0.70646">
        <ele>122.2247314</ele>
        <time>2014-01-11T08:38:17Z</time>
      </trkpt>
      <trkpt lat="44.23312" lon="0.70636">
        <ele>121.2635498</ele>
        <time>2014-01-11T08:38:28Z</time>
      </trkpt>
      <trkpt lat="44.2332" lon="0.70629">
        <ele>120.7828369</ele>
        <time>2014-01-11T08:38:40Z</time>
      </trkpt>
      <trkpt lat="44.2333" lon="0.70622">
        <ele>121.7441406</ele>
        <time>2014-01-11T08:38:54Z</time>
      </trkpt>
      <trkpt lat="44.23336" lon="0.70624">
        <ele>127.0313721</ele>
        <time>2014-01-11T08:39:11Z</time>
      </trkpt>
      <trkpt lat="44.23329" lon="0.70636">
        <ele>130.3959961</ele>
        <time>2014-01-11T08:39:32Z</time>
      </trkpt>
      <trkpt lat="44.23323" lon="0.70648">
        <ele>133.760498</ele>
        <time>2014-01-11T08:39:44Z</time>
      </trkpt>
      <trkpt lat="44.23319" lon="0.70661">
        <ele>137.605835</ele>
        <time>2014-01-11T08:39:57Z</time>
      </trkpt>
      <trkpt lat="44.23315" lon="0.70674">
        <ele>139.5284424</ele>
        <time>2014-01-11T08:40:09Z</time>
      </trkpt>
      <trkpt lat="44.2331" lon="0.70687">
        <ele>139.0478516</ele>
        <time>2014-01-11T08:40:20Z</time>
      </trkpt>
      <trkpt lat="44.23305" lon="0.70698">
        <ele>140.4898682</ele>
        <time>2014-01-11T08:40:30Z</time>
      </trkpt>
      <trkpt lat="44.23298" lon="0.70709">
        <ele>140.0091553</ele>
        <time>2014-01-11T08:40:41Z</time>
      </trkpt>
      <trkpt lat="44.23293" lon="0.70721">
        <ele>140.4898682</ele>
        <time>2014-01-11T08:40:52Z</time>
      </trkpt>
      <trkpt lat="44.23287" lon="0.70729">
        <ele>142.4124756</ele>
        <time>2014-01-11T08:41:01Z</time>
      </trkpt>
      <trkpt lat="44.23282" lon="0.70738">
        <ele>143.8543701</ele>
        <time>2014-01-11T08:41:12Z</time>
      </trkpt>
      <trkpt lat="44.23273" lon="0.7075">
        <ele>142.8930664</ele>
        <time>2014-01-11T08:41:25Z</time>
      </trkpt>
      <trkpt lat="44.23266" lon="0.70759">
        <ele>141.9317627</ele>
        <time>2014-01-11T08:41:35Z</time>
      </trkpt>
      <trkpt lat="44.23259" lon="0.70768">
        <ele>143.3736572</ele>
        <time>2014-01-11T08:41:45Z</time>
      </trkpt>
      <trkpt lat="44.23251" lon="0.70776">
        <ele>145.7770996</ele>
        <time>2014-01-11T08:41:55Z</time>
      </trkpt>
      <trkpt lat="44.23245" lon="0.70786">
        <ele>146.7384033</ele>
        <time>2014-01-11T08:42:07Z</time>
      </trkpt>
      <trkpt lat="44.23238" lon="0.70793">
        <ele>150.1030273</ele>
        <time>2014-01-11T08:44:58Z</time>
      </trkpt>
      <trkpt lat="44.23226" lon="0.70797">
        <ele>151.064209</ele>
        <time>2014-01-11T08:45:09Z</time>
      </trkpt>
      <trkpt lat="44.23217" lon="0.70803">
        <ele>151.064209</ele>
        <time>2014-01-11T08:45:19Z</time>
      </trkpt>
      <trkpt lat="44.23208" lon="0.70812">
        <ele>150.1030273</ele>
        <time>2014-01-11T08:45:28Z</time>
      </trkpt>
      <trkpt lat="44.23199" lon="0.70819">
        <ele>149.6223145</ele>
        <time>2014-01-11T08:45:37Z</time>
      </trkpt>
      <trkpt lat="44.2319" lon="0.70825">
        <ele>149.6223145</ele>
        <time>2014-01-11T08:45:46Z</time>
      </trkpt>
      <trkpt lat="44.23183" lon="0.70833">
        <ele>150.5836182</ele>
        <time>2014-01-11T08:45:56Z</time>
      </trkpt>
      <trkpt lat="44.23176" lon="0.7084">
        <ele>150.5836182</ele>
        <time>2014-01-11T08:46:08Z</time>
      </trkpt>
      <trkpt lat="44.23168" lon="0.70849">
        <ele>152.5063477</ele>
        <time>2014-01-11T08:46:18Z</time>
      </trkpt>
      <trkpt lat="44.2316" lon="0.70856">
        <ele>152.9869385</ele>
        <time>2014-01-11T08:46:27Z</time>
      </trkpt>
      <trkpt lat="44.23152" lon="0.70863">
        <ele>152.9869385</ele>
        <time>2014-01-11T08:46:36Z</time>
      </trkpt>
      <trkpt lat="44.23145" lon="0.7087">
        <ele>153.9483643</ele>
        <time>2014-01-11T08:46:45Z</time>
      </trkpt>
      <trkpt lat="44.23138" lon="0.70878">
        <ele>154.4289551</ele>
        <time>2014-01-11T08:46:55Z</time>
      </trkpt>
      <trkpt lat="44.2313" lon="0.70884">
        <ele>154.4289551</ele>
        <time>2014-01-11T08:47:05Z</time>
      </trkpt>
      <trkpt lat="44.23133" lon="0.70897">
        <ele>153.9483643</ele>
        <time>2014-01-11T08:47:25Z</time>
      </trkpt>
      <trkpt lat="44.23142" lon="0.70905">
        <ele>154.9095459</ele>
        <time>2014-01-11T08:47:34Z</time>
      </trkpt>
      <trkpt lat="44.23149" lon="0.70914">
        <ele>155.3902588</ele>
        <time>2014-01-11T08:47:43Z</time>
      </trkpt>
      <trkpt lat="44.23155" lon="0.70923">
        <ele>155.3902588</ele>
        <time>2014-01-11T08:47:52Z</time>
      </trkpt>
      <trkpt lat="44.23162" lon="0.70935">
        <ele>154.9095459</ele>
        <time>2014-01-11T08:48:01Z</time>
      </trkpt>
      <trkpt lat="44.23167" lon="0.70946">
        <ele>155.3902588</ele>
        <time>2014-01-11T08:48:10Z</time>
      </trkpt>
      <trkpt lat="44.23174" lon="0.70957">
        <ele>155.8709717</ele>
        <time>2014-01-11T08:48:19Z</time>
      </trkpt>
      <trkpt lat="44.2318" lon="0.70968">
        <ele>156.3515625</ele>
        <time>2014-01-11T08:48:28Z</time>
      </trkpt>
      <trkpt lat="44.23186" lon="0.70977">
        <ele>156.3515625</ele>
        <time>2014-01-11T08:48:36Z</time>
      </trkpt>
      <trkpt lat="44.2319" lon="0.70988">
        <ele>156.8321533</ele>
        <time>2014-01-11T08:48:44Z</time>
      </trkpt>
      <trkpt lat="44.23195" lon="0.70999">
        <ele>157.3128662</ele>
        <time>2014-01-11T08:48:52Z</time>
      </trkpt>
      <trkpt lat="44.23199" lon="0.71011">
        <ele>157.3128662</ele>
        <time>2014-01-11T08:49:01Z</time>
      </trkpt>
      <trkpt lat="44.23202" lon="0.71023">
        <ele>156.8321533</ele>
        <time>2014-01-11T08:49:10Z</time>
      </trkpt>
      <trkpt lat="44.23205" lon="0.71034">
        <ele>157.3128662</ele>
        <time>2014-01-11T08:49:19Z</time>
      </trkpt>
      <trkpt lat="44.23208" lon="0.71047">
        <ele>157.3128662</ele>
        <time>2014-01-11T08:49:28Z</time>
      </trkpt>
      <trkpt lat="44.23212" lon="0.7106">
        <ele>157.7935791</ele>
        <time>2014-01-11T08:49:37Z</time>
      </trkpt>
      <trkpt lat="44.23215" lon="0.71072">
        <ele>158.7547607</ele>
        <time>2014-01-11T08:49:46Z</time>
      </trkpt>
      <trkpt lat="44.23217" lon="0.71084">
        <ele>158.2741699</ele>
        <time>2014-01-11T08:49:55Z</time>
      </trkpt>
      <trkpt lat="44.23218" lon="0.71097">
        <ele>158.7547607</ele>
        <time>2014-01-11T08:50:04Z</time>
      </trkpt>
      <trkpt lat="44.23219" lon="0.7111">
        <ele>158.2741699</ele>
        <time>2014-01-11T08:50:13Z</time>
      </trkpt>
      <trkpt lat="44.23218" lon="0.71124">
        <ele>158.7547607</ele>
        <time>2014-01-11T08:50:22Z</time>
      </trkpt>
      <trkpt lat="44.23217" lon="0.71136">
        <ele>158.2741699</ele>
        <time>2014-01-11T08:50:30Z</time>
      </trkpt>
      <trkpt lat="44.23217" lon="0.71149">
        <ele>158.2741699</ele>
        <time>2014-01-11T08:50:39Z</time>
      </trkpt>
      <trkpt lat="44.23216" lon="0.71163">
        <ele>157.7935791</ele>
        <time>2014-01-11T08:50:48Z</time>
      </trkpt>
      <trkpt lat="44.23216" lon="0.71176">
        <ele>157.3128662</ele>
        <time>2014-01-11T08:50:57Z</time>
      </trkpt>
      <trkpt lat="44.23217" lon="0.7119">
        <ele>155.8709717</ele>
        <time>2014-01-11T08:51:06Z</time>
      </trkpt>
      <trkpt lat="44.23217" lon="0.71203">
        <ele>154.9095459</ele>
        <time>2014-01-11T08:51:14Z</time>
      </trkpt>
      <trkpt lat="44.23217" lon="0.71216">
        <ele>153.9483643</ele>
        <time>2014-01-11T08:51:23Z</time>
      </trkpt>
      <trkpt lat="44.2322" lon="0.7123">
        <ele>154.4289551</ele>
        <time>2014-01-11T08:51:32Z</time>
      </trkpt>
      <trkpt lat="44.2322" lon="0.71242">
        <ele>154.4289551</ele>
        <time>2014-01-11T08:51:40Z</time>
      </trkpt>
      <trkpt lat="44.23221" lon="0.71254">
        <ele>153.4676514</ele>
        <time>2014-01-11T08:51:48Z</time>
      </trkpt>
      <trkpt lat="44.23222" lon="0.71268">
        <ele>152.9869385</ele>
        <time>2014-01-11T08:51:57Z</time>
      </trkpt>
      <trkpt lat="44.23223" lon="0.71282">
        <ele>152.5063477</ele>
        <time>2014-01-11T08:52:06Z</time>
      </trkpt>
      <trkpt lat="44.23225" lon="0.71295">
        <ele>152.9869385</ele>
        <time>2014-01-11T08:52:15Z</time>
      </trkpt>
      <trkpt lat="44.23226" lon="0.71308">
        <ele>152.5063477</ele>
        <time>2014-01-11T08:52:24Z</time>
      </trkpt>
      <trkpt lat="44.23228" lon="0.71322">
        <ele>152.0257568</ele>
        <time>2014-01-11T08:52:33Z</time>
      </trkpt>
      <trkpt lat="44.23231" lon="0.71334">
        <ele>150.5836182</ele>
        <time>2014-01-11T08:52:42Z</time>
      </trkpt>
      <trkpt lat="44.23232" lon="0.71348">
        <ele>151.064209</ele>
        <time>2014-01-11T08:52:51Z</time>
      </trkpt>
      <trkpt lat="44.23234" lon="0.7136">
        <ele>149.6223145</ele>
        <time>2014-01-11T08:53:00Z</time>
      </trkpt>
      <trkpt lat="44.23237" lon="0.71373">
        <ele>149.6223145</ele>
        <time>2014-01-11T08:53:09Z</time>
      </trkpt>
      <trkpt lat="44.2324" lon="0.71386">
        <ele>151.064209</ele>
        <time>2014-01-11T08:53:18Z</time>
      </trkpt>
      <trkpt lat="44.23243" lon="0.71399">
        <ele>150.1030273</ele>
        <time>2014-01-11T08:53:27Z</time>
      </trkpt>
      <trkpt lat="44.23246" lon="0.7141">
        <ele>149.6223145</ele>
        <time>2014-01-11T08:53:36Z</time>
      </trkpt>
      <trkpt lat="44.2325" lon="0.71423">
        <ele>150.5836182</ele>
        <time>2014-01-11T08:53:45Z</time>
      </trkpt>
      <trkpt lat="44.23254" lon="0.71436">
        <ele>150.5836182</ele>
        <time>2014-01-11T08:53:55Z</time>
      </trkpt>
      <trkpt lat="44.23259" lon="0.71449">
        <ele>150.5836182</ele>
        <time>2014-01-11T08:54:04Z</time>
      </trkpt>
      <trkpt lat="44.23263" lon="0.71461">
        <ele>150.5836182</ele>
        <time>2014-01-11T08:54:14Z</time>
      </trkpt>
      <trkpt lat="44.23267" lon="0.71473">
        <ele>151.5449219</ele>
        <time>2014-01-11T08:54:23Z</time>
      </trkpt>
      <trkpt lat="44.23272" lon="0.71486">
        <ele>151.5449219</ele>
        <time>2014-01-11T08:54:32Z</time>
      </trkpt>
      <trkpt lat="44.23276" lon="0.71497">
        <ele>151.064209</ele>
        <time>2014-01-11T08:54:40Z</time>
      </trkpt>
      <trkpt lat="44.2328" lon="0.71508">
        <ele>150.5836182</ele>
        <time>2014-01-11T08:54:48Z</time>
      </trkpt>
      <trkpt lat="44.23285" lon="0.71519">
        <ele>150.5836182</ele>
        <time>2014-01-11T08:54:57Z</time>
      </trkpt>
      <trkpt lat="44.2329" lon="0.71531">
        <ele>151.064209</ele>
        <time>2014-01-11T08:55:06Z</time>
      </trkpt>
      <trkpt lat="44.23297" lon="0.71542">
        <ele>150.5836182</ele>
        <time>2014-01-11T08:55:15Z</time>
      </trkpt>
      <trkpt lat="44.23304" lon="0.71551">
        <ele>151.064209</ele>
        <time>2014-01-11T08:55:24Z</time>
      </trkpt>
      <trkpt lat="44.23311" lon="0.7156">
        <ele>151.064209</ele>
        <time>2014-01-11T08:55:34Z</time>
      </trkpt>
      <trkpt lat="44.23317" lon="0.7157">
        <ele>149.6223145</ele>
        <time>2014-01-11T08:55:43Z</time>
      </trkpt>
      <trkpt lat="44.23323" lon="0.71581">
        <ele>149.1416016</ele>
        <time>2014-01-11T08:55:52Z</time>
      </trkpt>
      <trkpt lat="44.23329" lon="0.71592">
        <ele>148.6610107</ele>
        <time>2014-01-11T08:56:01Z</time>
      </trkpt>
      <trkpt lat="44.23333" lon="0.71602">
        <ele>147.2189941</ele>
        <time>2014-01-11T08:56:10Z</time>
      </trkpt>
      <trkpt lat="44.23334" lon="0.71616">
        <ele>150.1030273</ele>
        <time>2014-01-11T08:56:19Z</time>
      </trkpt>
      <trkpt lat="44.23338" lon="0.71628">
        <ele>149.6223145</ele>
        <time>2014-01-11T08:56:28Z</time>
      </trkpt>
      <trkpt lat="44.23343" lon="0.7164">
        <ele>147.699707</ele>
        <time>2014-01-11T08:56:37Z</time>
      </trkpt>
      <trkpt lat="44.2335" lon="0.71651">
        <ele>147.2189941</ele>
        <time>2014-01-11T08:56:47Z</time>
      </trkpt>
      <trkpt lat="44.23358" lon="0.71658">
        <ele>147.2189941</ele>
        <time>2014-01-11T08:57:19Z</time>
      </trkpt>
      <trkpt lat="44.2337" lon="0.7166">
        <ele>147.2189941</ele>
        <time>2014-01-11T08:57:37Z</time>
      </trkpt>
      <trkpt lat="44.23382" lon="0.71661">
        <ele>140.970459</ele>
        <time>2014-01-11T08:57:54Z</time>
      </trkpt>
      <trkpt lat="44.23389" lon="0.71661">
        <ele>137.1252441</ele>
        <time>2014-01-11T08:58:14Z</time>
      </trkpt>
      <trkpt lat="44.23377" lon="0.71649">
        <ele>135.6831055</ele>
        <time>2014-01-11T08:58:33Z</time>
      </trkpt>
      <trkpt lat="44.23367" lon="0.71633">
        <ele>134.2412109</ele>
        <time>2014-01-11T08:58:50Z</time>
      </trkpt>
      <trkpt lat="44.23367" lon="0.71613">
        <ele>129.4346924</ele>
        <time>2014-01-11T08:59:08Z</time>
      </trkpt>
      <trkpt lat="44.23365" lon="0.71597">
        <ele>126.5506592</ele>
        <time>2014-01-11T08:59:25Z</time>
      </trkpt>
      <trkpt lat="44.23372" lon="0.71584">
        <ele>127.0313721</ele>
        <time>2014-01-11T08:59:42Z</time>
      </trkpt>
      <trkpt lat="44.23369" lon="0.7157">
        <ele>123.666748</ele>
        <time>2014-01-11T08:59:57Z</time>
      </trkpt>
      <trkpt lat="44.23361" lon="0.71553">
        <ele>121.2635498</ele>
        <time>2014-01-11T09:00:13Z</time>
      </trkpt>
      <trkpt lat="44.23356" lon="0.71539">
        <ele>117.8988037</ele>
        <time>2014-01-11T09:00:30Z</time>
      </trkpt>
      <trkpt lat="44.23377" lon="0.71533">
        <ele>118.8601074</ele>
        <time>2014-01-11T09:00:57Z</time>
      </trkpt>
      <trkpt lat="44.23386" lon="0.71529">
        <ele>120.7828369</ele>
        <time>2014-01-11T09:01:19Z</time>
      </trkpt>
      <trkpt lat="44.23388" lon="0.71512">
        <ele>121.2635498</ele>
        <time>2014-01-11T09:01:35Z</time>
      </trkpt>
      <trkpt lat="44.23386" lon="0.71499">
        <ele>120.302124</ele>
        <time>2014-01-11T09:01:58Z</time>
      </trkpt>
      <trkpt lat="44.23385" lon="0.71486">
        <ele>118.3793945</ele>
        <time>2014-01-11T09:02:16Z</time>
      </trkpt>
      <trkpt lat="44.23386" lon="0.71473">
        <ele>114.5341797</ele>
        <time>2014-01-11T09:02:30Z</time>
      </trkpt>
      <trkpt lat="44.23385" lon="0.7146">
        <ele>113.572998</ele>
        <time>2014-01-11T09:02:46Z</time>
      </trkpt>
      <trkpt lat="44.23384" lon="0.71445">
        <ele>115.0148926</ele>
        <time>2014-01-11T09:02:59Z</time>
      </trkpt>
      <trkpt lat="44.23385" lon="0.7143">
        <ele>114.0535889</ele>
        <time>2014-01-11T09:03:10Z</time>
      </trkpt>
      <trkpt lat="44.23386" lon="0.71415">
        <ele>111.6502686</ele>
        <time>2014-01-11T09:03:24Z</time>
      </trkpt>
      <trkpt lat="44.23392" lon="0.71406">
        <ele>108.2856445</ele>
        <time>2014-01-11T09:03:35Z</time>
      </trkpt>
      <trkpt lat="44.23397" lon="0.71393">
        <ele>104.4404297</ele>
        <time>2014-01-11T09:03:48Z</time>
      </trkpt>
      <trkpt lat="44.23403" lon="0.71376">
        <ele>100.114502</ele>
        <time>2014-01-11T09:04:01Z</time>
      </trkpt>
      <trkpt lat="44.23408" lon="0.71362">
        <ele>98.6724854</ele>
        <time>2014-01-11T09:04:13Z</time>
      </trkpt>
      <trkpt lat="44.23414" lon="0.7135">
        <ele>100.114502</ele>
        <time>2014-01-11T09:04:27Z</time>
      </trkpt>
      <trkpt lat="44.23423" lon="0.7134">
        <ele>100.5950928</ele>
        <time>2014-01-11T09:04:38Z</time>
      </trkpt>
      <trkpt lat="44.23433" lon="0.71331">
        <ele>99.1530762</ele>
        <time>2014-01-11T09:04:49Z</time>
      </trkpt>
      <trkpt lat="44.23443" lon="0.71323">
        <ele>98.6724854</ele>
        <time>2014-01-11T09:05:00Z</time>
      </trkpt>
      <trkpt lat="44.2345" lon="0.71313">
        <ele>96.7498779</ele>
        <time>2014-01-11T09:05:13Z</time>
      </trkpt>
      <trkpt lat="44.23459" lon="0.71305">
        <ele>94.3465576</ele>
        <time>2014-01-11T09:05:25Z</time>
      </trkpt>
      <trkpt lat="44.23468" lon="0.71294">
        <ele>92.4239502</ele>
        <time>2014-01-11T09:05:43Z</time>
      </trkpt>
      <trkpt lat="44.23484" lon="0.71283">
        <ele>93.3851318</ele>
        <time>2014-01-11T09:06:04Z</time>
      </trkpt>
      <trkpt lat="44.235" lon="0.71275">
        <ele>97.7111816</ele>
        <time>2014-01-11T09:06:23Z</time>
      </trkpt>
      <trkpt lat="44.23521" lon="0.71265">
        <ele>102.5177002</ele>
        <time>2014-01-11T09:06:42Z</time>
      </trkpt>
      <trkpt lat="44.23535" lon="0.71255">
        <ele>105.4017334</ele>
        <time>2014-01-11T09:07:01Z</time>
      </trkpt>
      <trkpt lat="44.23546" lon="0.71245">
        <ele>103.4790039</ele>
        <time>2014-01-11T09:07:15Z</time>
      </trkpt>
      <trkpt lat="44.23549" lon="0.71234">
        <ele>97.2304688</ele>
        <time>2014-01-11T09:07:39Z</time>
      </trkpt>
      <trkpt lat="44.23555" lon="0.71225">
        <ele>94.3465576</ele>
        <time>2014-01-11T09:07:52Z</time>
      </trkpt>
      <trkpt lat="44.23568" lon="0.71213">
        <ele>93.3851318</ele>
        <time>2014-01-11T09:08:09Z</time>
      </trkpt>
      <trkpt lat="44.23577" lon="0.71205">
        <ele>92.904541</ele>
        <time>2014-01-11T09:08:21Z</time>
      </trkpt>
      <trkpt lat="44.23587" lon="0.71197">
        <ele>91.9432373</ele>
        <time>2014-01-11T09:08:31Z</time>
      </trkpt>
      <trkpt lat="44.23595" lon="0.71188">
        <ele>92.904541</ele>
        <time>2014-01-11T09:08:41Z</time>
      </trkpt>
      <trkpt lat="44.23603" lon="0.71181">
        <ele>93.8658447</ele>
        <time>2014-01-11T09:08:52Z</time>
      </trkpt>
      <trkpt lat="44.23608" lon="0.71171">
        <ele>92.904541</ele>
        <time>2014-01-11T09:09:02Z</time>
      </trkpt>
      <trkpt lat="44.23614" lon="0.71163">
        <ele>91.4625244</ele>
        <time>2014-01-11T09:09:15Z</time>
      </trkpt>
      <trkpt lat="44.2362" lon="0.71152">
        <ele>90.0206299</ele>
        <time>2014-01-11T09:09:26Z</time>
      </trkpt>
      <trkpt lat="44.23629" lon="0.71144">
        <ele>91.4625244</ele>
        <time>2014-01-11T09:09:37Z</time>
      </trkpt>
      <trkpt lat="44.23637" lon="0.71137">
        <ele>91.9432373</ele>
        <time>2014-01-11T09:09:46Z</time>
      </trkpt>
      <trkpt lat="44.23646" lon="0.71131">
        <ele>94.8271484</ele>
        <time>2014-01-11T09:09:56Z</time>
      </trkpt>
      <trkpt lat="44.23654" lon="0.71127">
        <ele>93.8658447</ele>
        <time>2014-01-11T09:10:06Z</time>
      </trkpt>
      <trkpt lat="44.23663" lon="0.7112">
        <ele>93.3851318</ele>
        <time>2014-01-11T09:10:17Z</time>
      </trkpt>
      <trkpt lat="44.23672" lon="0.71113">
        <ele>93.8658447</ele>
        <time>2014-01-11T09:10:27Z</time>
      </trkpt>
      <trkpt lat="44.2368" lon="0.71105">
        <ele>92.4239502</ele>
        <time>2014-01-11T09:10:38Z</time>
      </trkpt>
      <trkpt lat="44.23691" lon="0.71097">
        <ele>91.9432373</ele>
        <time>2014-01-11T09:10:51Z</time>
      </trkpt>
      <trkpt lat="44.23701" lon="0.71091">
        <ele>91.9432373</ele>
        <time>2014-01-11T09:11:04Z</time>
      </trkpt>
      <trkpt lat="44.23712" lon="0.71083">
        <ele>89.0593262</ele>
        <time>2014-01-11T09:11:17Z</time>
      </trkpt>
      <trkpt lat="44.23722" lon="0.71079">
        <ele>87.1365967</ele>
        <time>2014-01-11T09:11:27Z</time>
      </trkpt>
      <trkpt lat="44.23731" lon="0.71076">
        <ele>86.175293</ele>
        <time>2014-01-11T09:11:35Z</time>
      </trkpt>
      <trkpt lat="44.23741" lon="0.71072">
        <ele>84.7333984</ele>
        <time>2014-01-11T09:11:45Z</time>
      </trkpt>
      <trkpt lat="44.23749" lon="0.71068">
        <ele>86.175293</ele>
        <time>2014-01-11T09:11:54Z</time>
      </trkpt>
      <trkpt lat="44.23759" lon="0.71062">
        <ele>87.1365967</ele>
        <time>2014-01-11T09:12:03Z</time>
      </trkpt>
      <trkpt lat="44.23767" lon="0.71059">
        <ele>86.175293</ele>
        <time>2014-01-11T09:12:12Z</time>
      </trkpt>
      <trkpt lat="44.23776" lon="0.71055">
        <ele>87.1365967</ele>
        <time>2014-01-11T09:12:20Z</time>
      </trkpt>
      <trkpt lat="44.23784" lon="0.7105">
        <ele>86.6560059</ele>
        <time>2014-01-11T09:12:28Z</time>
      </trkpt>
      <trkpt lat="44.23792" lon="0.71046">
        <ele>86.6560059</ele>
        <time>2014-01-11T09:12:36Z</time>
      </trkpt>
      <trkpt lat="44.23801" lon="0.71042">
        <ele>86.175293</ele>
        <time>2014-01-11T09:12:45Z</time>
      </trkpt>
      <trkpt lat="44.23811" lon="0.71036">
        <ele>86.175293</ele>
        <time>2014-01-11T09:12:53Z</time>
      </trkpt>
      <trkpt lat="44.23819" lon="0.71029">
        <ele>84.7333984</ele>
        <time>2014-01-11T09:13:02Z</time>
      </trkpt>
      <trkpt lat="44.23825" lon="0.71021">
        <ele>83.7719727</ele>
        <time>2014-01-11T09:13:10Z</time>
      </trkpt>
      <trkpt lat="44.23833" lon="0.71012">
        <ele>84.7333984</ele>
        <time>2014-01-11T09:13:19Z</time>
      </trkpt>
      <trkpt lat="44.2384" lon="0.71004">
        <ele>84.7333984</ele>
        <time>2014-01-11T09:13:27Z</time>
      </trkpt>
      <trkpt lat="44.23845" lon="0.70995">
        <ele>81.3687744</ele>
        <time>2014-01-11T09:13:35Z</time>
      </trkpt>
      <trkpt lat="44.23852" lon="0.70987">
        <ele>74.1588135</ele>
        <time>2014-01-11T09:13:44Z</time>
      </trkpt>
      <trkpt lat="44.2386" lon="0.70977">
        <ele>73.1976318</ele>
        <time>2014-01-11T09:13:54Z</time>
      </trkpt>
      <trkpt lat="44.23868" lon="0.70968">
        <ele>74.1588135</ele>
        <time>2014-01-11T09:14:03Z</time>
      </trkpt>
      <trkpt lat="44.23873" lon="0.70958">
        <ele>74.6395264</ele>
        <time>2014-01-11T09:14:12Z</time>
      </trkpt>
      <trkpt lat="44.23881" lon="0.7095">
        <ele>74.6395264</ele>
        <time>2014-01-11T09:14:21Z</time>
      </trkpt>
      <trkpt lat="44.23887" lon="0.70942">
        <ele>76.0814209</ele>
        <time>2014-01-11T09:14:29Z</time>
      </trkpt>
      <trkpt lat="44.23893" lon="0.70934">
        <ele>76.5621338</ele>
        <time>2014-01-11T09:14:37Z</time>
      </trkpt>
      <trkpt lat="44.23901" lon="0.70924">
        <ele>76.0814209</ele>
        <time>2014-01-11T09:14:46Z</time>
      </trkpt>
      <trkpt lat="44.23908" lon="0.70917">
        <ele>74.6395264</ele>
        <time>2014-01-11T09:14:55Z</time>
      </trkpt>
      <trkpt lat="44.23915" lon="0.70907">
        <ele>72.7169189</ele>
        <time>2014-01-11T09:15:04Z</time>
      </trkpt>
      <trkpt lat="44.23923" lon="0.70897">
        <ele>73.6782227</ele>
        <time>2014-01-11T09:15:14Z</time>
      </trkpt>
      <trkpt lat="44.23931" lon="0.70888">
        <ele>72.2362061</ele>
        <time>2014-01-11T09:15:22Z</time>
      </trkpt>
      <trkpt lat="44.23938" lon="0.7088">
        <ele>70.3134766</ele>
        <time>2014-01-11T09:15:31Z</time>
      </trkpt>
      <trkpt lat="44.23945" lon="0.70871">
        <ele>69.3522949</ele>
        <time>2014-01-11T09:15:40Z</time>
      </trkpt>
      <trkpt lat="44.23951" lon="0.70862">
        <ele>69.8328857</ele>
        <time>2014-01-11T09:15:48Z</time>
      </trkpt>
      <trkpt lat="44.23958" lon="0.70853">
        <ele>71.2749023</ele>
        <time>2014-01-11T09:15:57Z</time>
      </trkpt>
      <trkpt lat="44.23966" lon="0.70843">
        <ele>70.7941895</ele>
        <time>2014-01-11T09:16:06Z</time>
      </trkpt>
      <trkpt lat="44.23972" lon="0.70836">
        <ele>70.7941895</ele>
        <time>2014-01-11T09:16:14Z</time>
      </trkpt>
      <trkpt lat="44.23979" lon="0.70828">
        <ele>70.3134766</ele>
        <time>2014-01-11T09:16:22Z</time>
      </trkpt>
      <trkpt lat="44.23988" lon="0.70819">
        <ele>70.3134766</ele>
        <time>2014-01-11T09:16:31Z</time>
      </trkpt>
      <trkpt lat="44.23995" lon="0.7081">
        <ele>70.3134766</ele>
        <time>2014-01-11T09:16:40Z</time>
      </trkpt>
      <trkpt lat="44.24002" lon="0.70801">
        <ele>69.8328857</ele>
        <time>2014-01-11T09:16:50Z</time>
      </trkpt>
      <trkpt lat="44.24009" lon="0.70792">
        <ele>69.8328857</ele>
        <time>2014-01-11T09:16:59Z</time>
      </trkpt>
      <trkpt lat="44.24017" lon="0.70779">
        <ele>67.9102783</ele>
        <time>2014-01-11T09:17:11Z</time>
      </trkpt>
      <trkpt lat="44.24026" lon="0.7077">
        <ele>69.3522949</ele>
        <time>2014-01-11T09:17:19Z</time>
      </trkpt>
      <trkpt lat="44.24032" lon="0.70762">
        <ele>71.7554932</ele>
        <time>2014-01-11T09:17:26Z</time>
      </trkpt>
      <trkpt lat="44.24036" lon="0.70752">
        <ele>68.3908691</ele>
        <time>2014-01-11T09:17:36Z</time>
      </trkpt>
      <trkpt lat="44.24041" lon="0.70741">
        <ele>68.871582</ele>
        <time>2014-01-11T09:17:44Z</time>
      </trkpt>
      <trkpt lat="44.24047" lon="0.7073">
        <ele>68.871582</ele>
        <time>2014-01-11T09:17:52Z</time>
      </trkpt>
      <trkpt lat="44.24051" lon="0.7072">
        <ele>68.871582</ele>
        <time>2014-01-11T09:18:00Z</time>
      </trkpt>
      <trkpt lat="44.24056" lon="0.70712">
        <ele>68.3908691</ele>
        <time>2014-01-11T09:18:08Z</time>
      </trkpt>
      <trkpt lat="44.24062" lon="0.707">
        <ele>68.3908691</ele>
        <time>2014-01-11T09:18:16Z</time>
      </trkpt>
      <trkpt lat="44.24067" lon="0.7069">
        <ele>68.871582</ele>
        <time>2014-01-11T09:18:24Z</time>
      </trkpt>
      <trkpt lat="44.24074" lon="0.70681">
        <ele>69.8328857</ele>
        <time>2014-01-11T09:18:32Z</time>
      </trkpt>
      <trkpt lat="44.24077" lon="0.70671">
        <ele>67.9102783</ele>
        <time>2014-01-11T09:18:42Z</time>
      </trkpt>
      <trkpt lat="44.24083" lon="0.70661">
        <ele>67.4296875</ele>
        <time>2014-01-11T09:18:52Z</time>
      </trkpt>
      <trkpt lat="44.24089" lon="0.7065">
        <ele>66.4682617</ele>
        <time>2014-01-11T09:19:01Z</time>
      </trkpt>
      <trkpt lat="44.24094" lon="0.7064">
        <ele>65.9876709</ele>
        <time>2014-01-11T09:19:09Z</time>
      </trkpt>
      <trkpt lat="44.24094" lon="0.70625">
        <ele>66.4682617</ele>
        <time>2014-01-11T09:19:18Z</time>
      </trkpt>
      <trkpt lat="44.24091" lon="0.70611">
        <ele>65.9876709</ele>
        <time>2014-01-11T09:19:27Z</time>
      </trkpt>
      <trkpt lat="44.24087" lon="0.706">
        <ele>64.5456543</ele>
        <time>2014-01-11T09:19:36Z</time>
      </trkpt>
      <trkpt lat="44.24082" lon="0.70588">
        <ele>65.5070801</ele>
        <time>2014-01-11T09:19:45Z</time>
      </trkpt>
      <trkpt lat="44.24081" lon="0.70576">
        <ele>65.0263672</ele>
        <time>2014-01-11T09:19:54Z</time>
      </trkpt>
      <trkpt lat="44.24074" lon="0.70561">
        <ele>62.142334</ele>
        <time>2014-01-11T09:20:07Z</time>
      </trkpt>
      <trkpt lat="44.24069" lon="0.70542">
        <ele>56.8551025</ele>
        <time>2014-01-11T09:20:23Z</time>
      </trkpt>
      <trkpt lat="44.2406" lon="0.70522">
        <ele>56.3745117</ele>
        <time>2014-01-11T09:20:37Z</time>
      </trkpt>
      <trkpt lat="44.24058" lon="0.70506">
        <ele>56.8551025</ele>
        <time>2014-01-11T09:20:50Z</time>
      </trkpt>
      <trkpt lat="44.24059" lon="0.70492">
        <ele>56.3745117</ele>
        <time>2014-01-11T09:21:06Z</time>
      </trkpt>
      <trkpt lat="44.24068" lon="0.70483">
        <ele>54.932373</ele>
        <time>2014-01-11T09:21:21Z</time>
      </trkpt>
      <trkpt lat="44.24081" lon="0.70466">
        <ele>52.048584</ele>
        <time>2014-01-11T09:21:39Z</time>
      </trkpt>
      <trkpt lat="44.24089" lon="0.70451">
        <ele>49.6452637</ele>
        <time>2014-01-11T09:21:56Z</time>
      </trkpt>
      <trkpt lat="44.24093" lon="0.70437">
        <ele>50.1259766</ele>
        <time>2014-01-11T09:22:11Z</time>
      </trkpt>
      <trkpt lat="44.2411" lon="0.70422">
        <ele>52.048584</ele>
        <time>2014-01-11T09:22:26Z</time>
      </trkpt>
      <trkpt lat="44.24126" lon="0.70411">
        <ele>54.4517822</ele>
        <time>2014-01-11T09:22:44Z</time>
      </trkpt>
      <trkpt lat="44.24134" lon="0.70394">
        <ele>55.8937988</ele>
        <time>2014-01-11T09:23:16Z</time>
      </trkpt>
      <trkpt lat="44.24146" lon="0.70381">
        <ele>55.8937988</ele>
        <time>2014-01-11T09:23:31Z</time>
      </trkpt>
      <trkpt lat="44.2416" lon="0.70368">
        <ele>58.2971191</ele>
        <time>2014-01-11T09:23:46Z</time>
      </trkpt>
      <trkpt lat="44.24173" lon="0.70354">
        <ele>59.7391357</ele>
        <time>2014-01-11T09:24:02Z</time>
      </trkpt>
      <trkpt lat="44.24182" lon="0.70345">
        <ele>59.2584229</ele>
        <time>2014-01-11T09:24:16Z</time>
      </trkpt>
      <trkpt lat="44.24186" lon="0.70332">
        <ele>61.1810303</ele>
        <time>2014-01-11T09:24:35Z</time>
      </trkpt>
      <trkpt lat="44.24193" lon="0.7032">
        <ele>63.1036377</ele>
        <time>2014-01-11T09:24:48Z</time>
      </trkpt>
      <trkpt lat="44.242" lon="0.70309">
        <ele>64.5456543</ele>
        <time>2014-01-11T09:25:03Z</time>
      </trkpt>
      <trkpt lat="44.24208" lon="0.70299">
        <ele>66.4682617</ele>
        <time>2014-01-11T09:25:19Z</time>
      </trkpt>
      <trkpt lat="44.24218" lon="0.70286">
        <ele>67.4296875</ele>
        <time>2014-01-11T09:25:34Z</time>
      </trkpt>
      <trkpt lat="44.24228" lon="0.70277">
        <ele>68.871582</ele>
        <time>2014-01-11T09:25:51Z</time>
      </trkpt>
      <trkpt lat="44.24237" lon="0.70268">
        <ele>70.3134766</ele>
        <time>2014-01-11T09:26:04Z</time>
      </trkpt>
      <trkpt lat="44.24245" lon="0.70257">
        <ele>71.7554932</ele>
        <time>2014-01-11T09:26:20Z</time>
      </trkpt>
      <trkpt lat="44.24257" lon="0.70247">
        <ele>72.2362061</ele>
        <time>2014-01-11T09:26:38Z</time>
      </trkpt>
      <trkpt lat="44.2427" lon="0.70235">
        <ele>73.6782227</ele>
        <time>2014-01-11T09:27:01Z</time>
      </trkpt>
      <trkpt lat="44.2428" lon="0.70235">
        <ele>74.1588135</ele>
        <time>2014-01-11T09:27:22Z</time>
      </trkpt>
      <trkpt lat="44.24287" lon="0.7024">
        <ele>79.9266357</ele>
        <time>2014-01-11T09:27:34Z</time>
      </trkpt>
      <trkpt lat="44.24295" lon="0.70243">
        <ele>81.8493652</ele>
        <time>2014-01-11T09:27:46Z</time>
      </trkpt>
      <trkpt lat="44.24306" lon="0.70248">
        <ele>83.7719727</ele>
        <time>2014-01-11T09:28:04Z</time>
      </trkpt>
      <trkpt lat="44.24316" lon="0.70253">
        <ele>84.2526855</ele>
        <time>2014-01-11T09:28:20Z</time>
      </trkpt>
      <trkpt lat="44.24325" lon="0.70257">
        <ele>91.4625244</ele>
        <time>2014-01-11T09:28:41Z</time>
      </trkpt>
      <trkpt lat="44.24336" lon="0.70265">
        <ele>93.8658447</ele>
        <time>2014-01-11T09:29:02Z</time>
      </trkpt>
      <trkpt lat="44.24344" lon="0.70269">
        <ele>96.7498779</ele>
        <time>2014-01-11T09:29:18Z</time>
      </trkpt>
      <trkpt lat="44.24353" lon="0.70273">
        <ele>100.114502</ele>
        <time>2014-01-11T09:29:31Z</time>
      </trkpt>
      <trkpt lat="44.24362" lon="0.70273">
        <ele>101.5563965</ele>
        <time>2014-01-11T09:29:42Z</time>
      </trkpt>
      <trkpt lat="44.24372" lon="0.70275">
        <ele>102.0371094</ele>
        <time>2014-01-11T09:29:53Z</time>
      </trkpt>
      <trkpt lat="44.24381" lon="0.70277">
        <ele>103.4790039</ele>
        <time>2014-01-11T09:30:06Z</time>
      </trkpt>
      <trkpt lat="44.24395" lon="0.70271">
        <ele>103.4790039</ele>
        <time>2014-01-11T09:30:26Z</time>
      </trkpt>
      <trkpt lat="44.24408" lon="0.70262">
        <ele>108.7662354</ele>
        <time>2014-01-11T09:30:48Z</time>
      </trkpt>
      <trkpt lat="44.2442" lon="0.70252">
        <ele>110.6888428</ele>
        <time>2014-01-11T09:31:12Z</time>
      </trkpt>
      <trkpt lat="44.24433" lon="0.70246">
        <ele>112.1309814</ele>
        <time>2014-01-11T09:31:33Z</time>
      </trkpt>
      <trkpt lat="44.24442" lon="0.7025">
        <ele>116.4567871</ele>
        <time>2014-01-11T09:31:51Z</time>
      </trkpt>
      <trkpt lat="44.24453" lon="0.70248">
        <ele>120.7828369</ele>
        <time>2014-01-11T09:32:09Z</time>
      </trkpt>
      <trkpt lat="44.24463" lon="0.70249">
        <ele>123.1861572</ele>
        <time>2014-01-11T09:32:24Z</time>
      </trkpt>
      <trkpt lat="44.2447" lon="0.70257">
        <ele>125.1087646</ele>
        <time>2014-01-11T09:32:36Z</time>
      </trkpt>
      <trkpt lat="44.24477" lon="0.70261">
        <ele>128.4733887</ele>
        <time>2014-01-11T09:32:51Z</time>
      </trkpt>
      <trkpt lat="44.24484" lon="0.70272">
        <ele>132.3186035</ele>
        <time>2014-01-11T09:33:05Z</time>
      </trkpt>
      <trkpt lat="44.2449" lon="0.70284">
        <ele>137.1252441</ele>
        <time>2014-01-11T09:33:23Z</time>
      </trkpt>
      <trkpt lat="44.24496" lon="0.70294">
        <ele>138.5672607</ele>
        <time>2014-01-11T09:33:43Z</time>
      </trkpt>
      <trkpt lat="44.24502" lon="0.70293">
        <ele>139.5284424</ele>
        <time>2014-01-11T09:33:58Z</time>
      </trkpt>
      <trkpt lat="44.24503" lon="0.70276">
        <ele>137.1252441</ele>
        <time>2014-01-11T09:34:15Z</time>
      </trkpt>
      <trkpt lat="44.24505" lon="0.70254">
        <ele>140.970459</ele>
        <time>2014-01-11T09:36:47Z</time>
      </trkpt>
      <trkpt lat="44.24501" lon="0.70235">
        <ele>140.970459</ele>
        <time>2014-01-11T09:37:17Z</time>
      </trkpt>
      <trkpt lat="44.24497" lon="0.70218">
        <ele>140.970459</ele>
        <time>2014-01-11T09:37:35Z</time>
      </trkpt>
      <trkpt lat="44.24495" lon="0.70202">
        <ele>143.8543701</ele>
        <time>2014-01-11T09:37:51Z</time>
      </trkpt>
      <trkpt lat="44.24495" lon="0.70183">
        <ele>143.8543701</ele>
        <time>2014-01-11T09:38:06Z</time>
      </trkpt>
      <trkpt lat="44.24497" lon="0.70168">
        <ele>140.0091553</ele>
        <time>2014-01-11T09:38:18Z</time>
      </trkpt>
      <trkpt lat="44.24502" lon="0.70151">
        <ele>139.5284424</ele>
        <time>2014-01-11T09:38:32Z</time>
      </trkpt>
      <trkpt lat="44.24507" lon="0.70135">
        <ele>138.5672607</ele>
        <time>2014-01-11T09:38:45Z</time>
      </trkpt>
      <trkpt lat="44.24512" lon="0.70118">
        <ele>137.605835</ele>
        <time>2014-01-11T09:39:03Z</time>
      </trkpt>
      <trkpt lat="44.24521" lon="0.701">
        <ele>139.0478516</ele>
        <time>2014-01-11T09:39:22Z</time>
      </trkpt>
      <trkpt lat="44.2453" lon="0.70084">
        <ele>138.0865479</ele>
        <time>2014-01-11T09:39:39Z</time>
      </trkpt>
      <trkpt lat="44.2454" lon="0.70067">
        <ele>139.0478516</ele>
        <time>2014-01-11T09:39:55Z</time>
      </trkpt>
      <trkpt lat="44.24545" lon="0.70051">
        <ele>140.4898682</ele>
        <time>2014-01-11T09:40:11Z</time>
      </trkpt>
      <trkpt lat="44.2455" lon="0.70038">
        <ele>142.8930664</ele>
        <time>2014-01-11T09:40:23Z</time>
      </trkpt>
      <trkpt lat="44.24554" lon="0.70024">
        <ele>144.3352051</ele>
        <time>2014-01-11T09:40:36Z</time>
      </trkpt>
      <trkpt lat="44.24556" lon="0.70011">
        <ele>143.3736572</ele>
        <time>2014-01-11T09:40:48Z</time>
      </trkpt>
      <trkpt lat="44.24561" lon="0.69998">
        <ele>145.2963867</ele>
        <time>2014-01-11T09:41:05Z</time>
      </trkpt>
      <trkpt lat="44.2457" lon="0.69985">
        <ele>146.2578125</ele>
        <time>2014-01-11T09:41:20Z</time>
      </trkpt>
      <trkpt lat="44.24576" lon="0.69975">
        <ele>147.699707</ele>
        <time>2014-01-11T09:41:33Z</time>
      </trkpt>
      <trkpt lat="44.24582" lon="0.69966">
        <ele>146.7384033</ele>
        <time>2014-01-11T09:41:44Z</time>
      </trkpt>
      <trkpt lat="44.24588" lon="0.69956">
        <ele>148.1804199</ele>
        <time>2014-01-11T09:41:53Z</time>
      </trkpt>
      <trkpt lat="44.24592" lon="0.69947">
        <ele>146.2578125</ele>
        <time>2014-01-11T09:42:05Z</time>
      </trkpt>
      <trkpt lat="44.24597" lon="0.69934">
        <ele>149.6223145</ele>
        <time>2014-01-11T09:42:18Z</time>
      </trkpt>
      <trkpt lat="44.24603" lon="0.69925">
        <ele>151.5449219</ele>
        <time>2014-01-11T09:42:29Z</time>
      </trkpt>
      <trkpt lat="44.24609" lon="0.69915">
        <ele>151.064209</ele>
        <time>2014-01-11T09:42:41Z</time>
      </trkpt>
      <trkpt lat="44.24616" lon="0.69906">
        <ele>152.0257568</ele>
        <time>2014-01-11T09:42:53Z</time>
      </trkpt>
      <trkpt lat="44.24622" lon="0.69894">
        <ele>155.8709717</ele>
        <time>2014-01-11T09:43:05Z</time>
      </trkpt>
      <trkpt lat="44.24629" lon="0.69883">
        <ele>158.7547607</ele>
        <time>2014-01-11T09:43:18Z</time>
      </trkpt>
      <trkpt lat="44.24634" lon="0.69872">
        <ele>159.2354736</ele>
        <time>2014-01-11T09:43:32Z</time>
      </trkpt>
      <trkpt lat="44.24641" lon="0.69866">
        <ele>159.7161865</ele>
        <time>2014-01-11T09:43:49Z</time>
      </trkpt>
      <trkpt lat="44.24649" lon="0.69861">
        <ele>159.7161865</ele>
        <time>2014-01-11T09:44:03Z</time>
      </trkpt>
      <trkpt lat="44.2466" lon="0.69858">
        <ele>160.1968994</ele>
        <time>2014-01-11T09:44:17Z</time>
      </trkpt>
      <trkpt lat="44.24668" lon="0.69852">
        <ele>157.3128662</ele>
        <time>2014-01-11T09:44:27Z</time>
      </trkpt>
      <trkpt lat="44.24678" lon="0.69846">
        <ele>156.3515625</ele>
        <time>2014-01-11T09:44:41Z</time>
      </trkpt>
      <trkpt lat="44.24678" lon="0.69833">
        <ele>157.7935791</ele>
        <time>2014-01-11T09:45:10Z</time>
      </trkpt>
      <trkpt lat="44.24672" lon="0.69821">
        <ele>159.7161865</ele>
        <time>2014-01-11T09:45:21Z</time>
      </trkpt>
      <trkpt lat="44.24669" lon="0.69808">
        <ele>160.6774902</ele>
        <time>2014-01-11T09:45:30Z</time>
      </trkpt>
      <trkpt lat="44.24664" lon="0.69795">
        <ele>159.7161865</ele>
        <time>2014-01-11T09:45:40Z</time>
      </trkpt>
      <trkpt lat="44.2466" lon="0.69783">
        <ele>159.2354736</ele>
        <time>2014-01-11T09:45:51Z</time>
      </trkpt>
      <trkpt lat="44.24654" lon="0.69772">
        <ele>157.3128662</ele>
        <time>2014-01-11T09:46:00Z</time>
      </trkpt>
      <trkpt lat="44.24651" lon="0.69759">
        <ele>159.2354736</ele>
        <time>2014-01-11T09:46:10Z</time>
      </trkpt>
      <trkpt lat="44.24648" lon="0.69743">
        <ele>161.638916</ele>
        <time>2014-01-11T09:46:22Z</time>
      </trkpt>
      <trkpt lat="44.24646" lon="0.6973">
        <ele>160.6774902</ele>
        <time>2014-01-11T09:46:32Z</time>
      </trkpt>
      <trkpt lat="44.24644" lon="0.69715">
        <ele>164.0421143</ele>
        <time>2014-01-11T09:46:43Z</time>
      </trkpt>
      <trkpt lat="44.2464" lon="0.697">
        <ele>163.0808105</ele>
        <time>2014-01-11T09:46:53Z</time>
      </trkpt>
      <trkpt lat="44.24637" lon="0.69685">
        <ele>163.0808105</ele>
        <time>2014-01-11T09:47:04Z</time>
      </trkpt>
      <trkpt lat="44.24635" lon="0.69671">
        <ele>165.003418</ele>
        <time>2014-01-11T09:47:15Z</time>
      </trkpt>
      <trkpt lat="44.24632" lon="0.69657">
        <ele>170.2906494</ele>
        <time>2014-01-11T09:47:27Z</time>
      </trkpt>
      <trkpt lat="44.24627" lon="0.69641">
        <ele>172.2132568</ele>
        <time>2014-01-11T09:47:36Z</time>
      </trkpt>
      <trkpt lat="44.24623" lon="0.69627">
        <ele>169.3294678</ele>
        <time>2014-01-11T09:47:47Z</time>
      </trkpt>
      <trkpt lat="44.24619" lon="0.6961">
        <ele>167.8873291</ele>
        <time>2014-01-11T09:47:57Z</time>
      </trkpt>
      <trkpt lat="44.24615" lon="0.69599">
        <ele>166.9260254</ele>
        <time>2014-01-11T09:48:08Z</time>
      </trkpt>
      <trkpt lat="44.24612" lon="0.69583">
        <ele>165.4841309</ele>
        <time>2014-01-11T09:48:18Z</time>
      </trkpt>
      <trkpt lat="44.2461" lon="0.69567">
        <ele>165.003418</ele>
        <time>2014-01-11T09:48:28Z</time>
      </trkpt>
      <trkpt lat="44.24608" lon="0.69556">
        <ele>162.6000977</ele>
        <time>2014-01-11T09:48:36Z</time>
      </trkpt>
      <trkpt lat="44.24607" lon="0.69543">
        <ele>161.1582031</ele>
        <time>2014-01-11T09:48:45Z</time>
      </trkpt>
      <trkpt lat="44.24605" lon="0.6953">
        <ele>160.1968994</ele>
        <time>2014-01-11T09:48:54Z</time>
      </trkpt>
      <trkpt lat="44.24603" lon="0.69517">
        <ele>159.7161865</ele>
        <time>2014-01-11T09:49:02Z</time>
      </trkpt>
      <trkpt lat="44.24601" lon="0.69505">
        <ele>158.7547607</ele>
        <time>2014-01-11T09:49:11Z</time>
      </trkpt>
      <trkpt lat="44.246" lon="0.69492">
        <ele>158.2741699</ele>
        <time>2014-01-11T09:49:20Z</time>
      </trkpt>
      <trkpt lat="44.24597" lon="0.6948">
        <ele>157.3128662</ele>
        <time>2014-01-11T09:49:29Z</time>
      </trkpt>
      <trkpt lat="44.24594" lon="0.69467">
        <ele>156.8321533</ele>
        <time>2014-01-11T09:49:38Z</time>
      </trkpt>
      <trkpt lat="44.24591" lon="0.69455">
        <ele>156.3515625</ele>
        <time>2014-01-11T09:49:47Z</time>
      </trkpt>
      <trkpt lat="44.24587" lon="0.69443">
        <ele>156.8321533</ele>
        <time>2014-01-11T09:49:56Z</time>
      </trkpt>
      <trkpt lat="44.24584" lon="0.6943">
        <ele>155.8709717</ele>
        <time>2014-01-11T09:50:05Z</time>
      </trkpt>
      <trkpt lat="44.24581" lon="0.69417">
        <ele>154.4289551</ele>
        <time>2014-01-11T09:50:14Z</time>
      </trkpt>
      <trkpt lat="44.24577" lon="0.69407">
        <ele>152.9869385</ele>
        <time>2014-01-11T09:50:22Z</time>
      </trkpt>
      <trkpt lat="44.24574" lon="0.69394">
        <ele>152.5063477</ele>
        <time>2014-01-11T09:50:31Z</time>
      </trkpt>
      <trkpt lat="44.24571" lon="0.69382">
        <ele>151.5449219</ele>
        <time>2014-01-11T09:50:40Z</time>
      </trkpt>
      <trkpt lat="44.24568" lon="0.6937">
        <ele>151.064209</ele>
        <time>2014-01-11T09:50:49Z</time>
      </trkpt>
      <trkpt lat="44.24564" lon="0.69356">
        <ele>150.1030273</ele>
        <time>2014-01-11T09:50:58Z</time>
      </trkpt>
      <trkpt lat="44.24561" lon="0.69345">
        <ele>150.5836182</ele>
        <time>2014-01-11T09:51:06Z</time>
      </trkpt>
      <trkpt lat="44.24558" lon="0.69332">
        <ele>151.064209</ele>
        <time>2014-01-11T09:51:15Z</time>
      </trkpt>
      <trkpt lat="44.24555" lon="0.69321">
        <ele>150.1030273</ele>
        <time>2014-01-11T09:51:24Z</time>
      </trkpt>
      <trkpt lat="44.2455" lon="0.69308">
        <ele>149.6223145</ele>
        <time>2014-01-11T09:51:33Z</time>
      </trkpt>
      <trkpt lat="44.24545" lon="0.69297">
        <ele>149.6223145</ele>
        <time>2014-01-11T09:51:41Z</time>
      </trkpt>
      <trkpt lat="44.2454" lon="0.69285">
        <ele>148.6610107</ele>
        <time>2014-01-11T09:51:50Z</time>
      </trkpt>
      <trkpt lat="44.24534" lon="0.69275">
        <ele>148.6610107</ele>
        <time>2014-01-11T09:51:59Z</time>
      </trkpt>
      <trkpt lat="44.24527" lon="0.69264">
        <ele>147.699707</ele>
        <time>2014-01-11T09:52:08Z</time>
      </trkpt>
      <trkpt lat="44.2452" lon="0.69255">
        <ele>147.699707</ele>
        <time>2014-01-11T09:52:16Z</time>
      </trkpt>
      <trkpt lat="44.24514" lon="0.69244">
        <ele>146.7384033</ele>
        <time>2014-01-11T09:52:25Z</time>
      </trkpt>
      <trkpt lat="44.24508" lon="0.69235">
        <ele>146.2578125</ele>
        <time>2014-01-11T09:52:33Z</time>
      </trkpt>
      <trkpt lat="44.24502" lon="0.69225">
        <ele>146.7384033</ele>
        <time>2014-01-11T09:52:42Z</time>
      </trkpt>
      <trkpt lat="44.24497" lon="0.69214">
        <ele>147.2189941</ele>
        <time>2014-01-11T09:52:51Z</time>
      </trkpt>
      <trkpt lat="44.24491" lon="0.69204">
        <ele>146.2578125</ele>
        <time>2014-01-11T09:53:00Z</time>
      </trkpt>
      <trkpt lat="44.24486" lon="0.69193">
        <ele>146.2578125</ele>
        <time>2014-01-11T09:53:09Z</time>
      </trkpt>
      <trkpt lat="44.2448" lon="0.69181">
        <ele>146.2578125</ele>
        <time>2014-01-11T09:53:18Z</time>
      </trkpt>
      <trkpt lat="44.24476" lon="0.6917">
        <ele>147.2189941</ele>
        <time>2014-01-11T09:53:27Z</time>
      </trkpt>
      <trkpt lat="44.24472" lon="0.69158">
        <ele>147.2189941</ele>
        <time>2014-01-11T09:53:36Z</time>
      </trkpt>
      <trkpt lat="44.24467" lon="0.69147">
        <ele>145.2963867</ele>
        <time>2014-01-11T09:53:45Z</time>
      </trkpt>
      <trkpt lat="44.24461" lon="0.69135">
        <ele>144.3352051</ele>
        <time>2014-01-11T09:53:54Z</time>
      </trkpt>
      <trkpt lat="44.24455" lon="0.69127">
        <ele>142.8930664</ele>
        <time>2014-01-11T09:54:03Z</time>
      </trkpt>
      <trkpt lat="44.24449" lon="0.69118">
        <ele>144.3352051</ele>
        <time>2014-01-11T09:54:33Z</time>
      </trkpt>
      <trkpt lat="44.24445" lon="0.69108">
        <ele>144.3352051</ele>
        <time>2014-01-11T09:55:00Z</time>
      </trkpt>
      <trkpt lat="44.24452" lon="0.69098">
        <ele>139.0478516</ele>
        <time>2014-01-11T09:55:10Z</time>
      </trkpt>
      <trkpt lat="44.24461" lon="0.69084">
        <ele>138.0865479</ele>
        <time>2014-01-11T09:55:26Z</time>
      </trkpt>
      <trkpt lat="44.24459" lon="0.6907">
        <ele>139.0478516</ele>
        <time>2014-01-11T09:55:41Z</time>
      </trkpt>
      <trkpt lat="44.24451" lon="0.69058">
        <ele>141.4510498</ele>
        <time>2014-01-11T09:55:56Z</time>
      </trkpt>
      <trkpt lat="44.24453" lon="0.69047">
        <ele>140.4898682</ele>
        <time>2014-01-11T09:56:09Z</time>
      </trkpt>
      <trkpt lat="44.24459" lon="0.69036">
        <ele>139.5284424</ele>
        <time>2014-01-11T09:56:23Z</time>
      </trkpt>
      <trkpt lat="44.24475" lon="0.69044">
        <ele>138.0865479</ele>
        <time>2014-01-11T09:56:42Z</time>
      </trkpt>
      <trkpt lat="44.24489" lon="0.69053">
        <ele>136.6446533</ele>
        <time>2014-01-11T09:56:58Z</time>
      </trkpt>
      <trkpt lat="44.245" lon="0.69057">
        <ele>134.2412109</ele>
        <time>2014-01-11T09:57:20Z</time>
      </trkpt>
      <trkpt lat="44.24517" lon="0.69054">
        <ele>130.876709</ele>
        <time>2014-01-11T09:57:43Z</time>
      </trkpt>
      <trkpt lat="44.24528" lon="0.69051">
        <ele>129.4346924</ele>
        <time>2014-01-11T09:57:59Z</time>
      </trkpt>
      <trkpt lat="44.24534" lon="0.69032">
        <ele>128.4733887</ele>
        <time>2014-01-11T09:58:14Z</time>
      </trkpt>
      <trkpt lat="44.24536" lon="0.69016">
        <ele>127.0313721</ele>
        <time>2014-01-11T09:58:27Z</time>
      </trkpt>
      <trkpt lat="44.24541" lon="0.69002">
        <ele>124.6280518</ele>
        <time>2014-01-11T09:58:39Z</time>
      </trkpt>
      <trkpt lat="44.2455" lon="0.6899">
        <ele>125.5893555</ele>
        <time>2014-01-11T09:58:49Z</time>
      </trkpt>
      <trkpt lat="44.24561" lon="0.68979">
        <ele>126.0699463</ele>
        <time>2014-01-11T09:59:01Z</time>
      </trkpt>
      <trkpt lat="44.24568" lon="0.68973">
        <ele>120.7828369</ele>
        <time>2014-01-11T09:59:21Z</time>
      </trkpt>
      <trkpt lat="44.24577" lon="0.68962">
        <ele>118.3793945</ele>
        <time>2014-01-11T09:59:35Z</time>
      </trkpt>
      <trkpt lat="44.24591" lon="0.68953">
        <ele>115.0148926</ele>
        <time>2014-01-11T09:59:48Z</time>
      </trkpt>
      <trkpt lat="44.24606" lon="0.6895">
        <ele>112.6115723</ele>
        <time>2014-01-11T10:00:01Z</time>
      </trkpt>
      <trkpt lat="44.24616" lon="0.68938">
        <ele>109.2469482</ele>
        <time>2014-01-11T10:00:15Z</time>
      </trkpt>
      <trkpt lat="44.24625" lon="0.68934">
        <ele>105.4017334</ele>
        <time>2014-01-11T10:00:25Z</time>
      </trkpt>
      <trkpt lat="44.24626" lon="0.68914">
        <ele>105.4017334</ele>
        <time>2014-01-11T10:00:41Z</time>
      </trkpt>
      <trkpt lat="44.24616" lon="0.68907">
        <ele>104.9210205</ele>
        <time>2014-01-11T10:00:52Z</time>
      </trkpt>
      <trkpt lat="44.24608" lon="0.68912">
        <ele>103.4790039</ele>
        <time>2014-01-11T10:01:02Z</time>
      </trkpt>
      <trkpt lat="44.24596" lon="0.68917">
        <ele>105.4017334</ele>
        <time>2014-01-11T10:01:14Z</time>
      </trkpt>
      <trkpt lat="44.24582" lon="0.68922">
        <ele>105.8824463</ele>
        <time>2014-01-11T10:01:30Z</time>
      </trkpt>
      <trkpt lat="44.24568" lon="0.6892">
        <ele>105.8824463</ele>
        <time>2014-01-11T10:01:43Z</time>
      </trkpt>
      <trkpt lat="44.24557" lon="0.6892">
        <ele>106.8436279</ele>
        <time>2014-01-11T10:01:55Z</time>
      </trkpt>
      <trkpt lat="44.24546" lon="0.68916">
        <ele>102.0371094</ele>
        <time>2014-01-11T10:02:12Z</time>
      </trkpt>
      <trkpt lat="44.24542" lon="0.68907">
        <ele>99.1530762</ele>
        <time>2014-01-11T10:02:30Z</time>
      </trkpt>
      <trkpt lat="44.2454" lon="0.68895">
        <ele>96.7498779</ele>
        <time>2014-01-11T10:02:41Z</time>
      </trkpt>
      <trkpt lat="44.24536" lon="0.68881">
        <ele>95.3077393</ele>
        <time>2014-01-11T10:02:52Z</time>
      </trkpt>
      <trkpt lat="44.2453" lon="0.68868">
        <ele>93.8658447</ele>
        <time>2014-01-11T10:03:02Z</time>
      </trkpt>
      <trkpt lat="44.24528" lon="0.68855">
        <ele>91.9432373</ele>
        <time>2014-01-11T10:03:12Z</time>
      </trkpt>
      <trkpt lat="44.24535" lon="0.68844">
        <ele>90.9819336</ele>
        <time>2014-01-11T10:03:24Z</time>
      </trkpt>
      <trkpt lat="44.24538" lon="0.6883">
        <ele>89.539917</ele>
        <time>2014-01-11T10:03:33Z</time>
      </trkpt>
      <trkpt lat="44.24538" lon="0.68815">
        <ele>88.0980225</ele>
        <time>2014-01-11T10:03:43Z</time>
      </trkpt>
      <trkpt lat="44.24541" lon="0.68803">
        <ele>87.6171875</ele>
        <time>2014-01-11T10:03:55Z</time>
      </trkpt>
      <trkpt lat="44.24546" lon="0.68791">
        <ele>85.6945801</ele>
        <time>2014-01-11T10:04:05Z</time>
      </trkpt>
      <trkpt lat="44.24553" lon="0.68782">
        <ele>85.2139893</ele>
        <time>2014-01-11T10:04:16Z</time>
      </trkpt>
      <trkpt lat="44.24559" lon="0.68772">
        <ele>85.2139893</ele>
        <time>2014-01-11T10:04:28Z</time>
      </trkpt>
      <trkpt lat="44.24556" lon="0.68762">
        <ele>83.2913818</ele>
        <time>2014-01-11T10:04:49Z</time>
      </trkpt>
      <trkpt lat="44.24561" lon="0.68752">
        <ele>80.4074707</ele>
        <time>2014-01-11T10:05:05Z</time>
      </trkpt>
      <trkpt lat="44.24571" lon="0.68741">
        <ele>81.3687744</ele>
        <time>2014-01-11T10:05:19Z</time>
      </trkpt>
      <trkpt lat="44.24578" lon="0.68728">
        <ele>80.4074707</ele>
        <time>2014-01-11T10:05:33Z</time>
      </trkpt>
      <trkpt lat="44.24587" lon="0.68718">
        <ele>80.4074707</ele>
        <time>2014-01-11T10:05:48Z</time>
      </trkpt>
      <trkpt lat="44.24598" lon="0.68703">
        <ele>79.4460449</ele>
        <time>2014-01-11T10:06:05Z</time>
      </trkpt>
      <trkpt lat="44.24608" lon="0.68692">
        <ele>78.0040283</ele>
        <time>2014-01-11T10:06:16Z</time>
      </trkpt>
      <trkpt lat="44.24616" lon="0.68681">
        <ele>79.4460449</ele>
        <time>2014-01-11T10:06:37Z</time>
      </trkpt>
      <trkpt lat="44.24629" lon="0.68667">
        <ele>80.8881836</ele>
        <time>2014-01-11T10:06:57Z</time>
      </trkpt>
      <trkpt lat="44.2463" lon="0.6865">
        <ele>80.8881836</ele>
        <time>2014-01-11T10:07:10Z</time>
      </trkpt>
      <trkpt lat="44.24632" lon="0.68634">
        <ele>75.6008301</ele>
        <time>2014-01-11T10:07:24Z</time>
      </trkpt>
      <trkpt lat="44.24642" lon="0.68613">
        <ele>71.2749023</ele>
        <time>2014-01-11T10:07:46Z</time>
      </trkpt>
      <trkpt lat="44.24647" lon="0.68595">
        <ele>67.9102783</ele>
        <time>2014-01-11T10:08:12Z</time>
      </trkpt>
      <trkpt lat="44.24652" lon="0.68579">
        <ele>66.9489746</ele>
        <time>2014-01-11T10:08:25Z</time>
      </trkpt>
      <trkpt lat="44.24655" lon="0.68563">
        <ele>64.0650635</ele>
        <time>2014-01-11T10:08:36Z</time>
      </trkpt>
      <trkpt lat="44.24656" lon="0.6855">
        <ele>61.1810303</ele>
        <time>2014-01-11T10:08:46Z</time>
      </trkpt>
      <trkpt lat="44.24657" lon="0.68538">
        <ele>61.1810303</ele>
        <time>2014-01-11T10:08:55Z</time>
      </trkpt>
      <trkpt lat="44.24655" lon="0.68526">
        <ele>59.2584229</ele>
        <time>2014-01-11T10:09:05Z</time>
      </trkpt>
      <trkpt lat="44.24654" lon="0.68512">
        <ele>57.3358154</ele>
        <time>2014-01-11T10:09:15Z</time>
      </trkpt>
      <trkpt lat="44.24654" lon="0.68498">
        <ele>56.8551025</ele>
        <time>2014-01-11T10:09:25Z</time>
      </trkpt>
      <trkpt lat="44.24651" lon="0.68487">
        <ele>57.3358154</ele>
        <time>2014-01-11T10:09:35Z</time>
      </trkpt>
      <trkpt lat="44.2465" lon="0.68473">
        <ele>59.7391357</ele>
        <time>2014-01-11T10:09:46Z</time>
      </trkpt>
      <trkpt lat="44.24649" lon="0.68461">
        <ele>62.6229248</ele>
        <time>2014-01-11T10:10:04Z</time>
      </trkpt>
      <trkpt lat="44.24645" lon="0.68447">
        <ele>62.142334</ele>
        <time>2014-01-11T10:10:16Z</time>
      </trkpt>
      <trkpt lat="44.24641" lon="0.68435">
        <ele>63.1036377</ele>
        <time>2014-01-11T10:10:48Z</time>
      </trkpt>
      <trkpt lat="44.24632" lon="0.68426">
        <ele>62.6229248</ele>
        <time>2014-01-11T10:11:00Z</time>
      </trkpt>
      <trkpt lat="44.24625" lon="0.68417">
        <ele>61.6617432</ele>
        <time>2014-01-11T10:11:10Z</time>
      </trkpt>
      <trkpt lat="44.24617" lon="0.68408">
        <ele>61.6617432</ele>
        <time>2014-01-11T10:11:19Z</time>
      </trkpt>
      <trkpt lat="44.24612" lon="0.68399">
        <ele>60.2197266</ele>
        <time>2014-01-11T10:11:29Z</time>
      </trkpt>
      <trkpt lat="44.24604" lon="0.68389">
        <ele>59.7391357</ele>
        <time>2014-01-11T10:11:39Z</time>
      </trkpt>
      <trkpt lat="44.24597" lon="0.6838">
        <ele>59.2584229</ele>
        <time>2014-01-11T10:11:48Z</time>
      </trkpt>
      <trkpt lat="44.24589" lon="0.6837">
        <ele>61.1810303</ele>
        <time>2014-01-11T10:11:57Z</time>
      </trkpt>
      <trkpt lat="44.24582" lon="0.68361">
        <ele>61.6617432</ele>
        <time>2014-01-11T10:12:06Z</time>
      </trkpt>
      <trkpt lat="44.24575" lon="0.68352">
        <ele>65.0263672</ele>
        <time>2014-01-11T10:12:16Z</time>
      </trkpt>
      <trkpt lat="44.24567" lon="0.68344">
        <ele>65.9876709</ele>
        <time>2014-01-11T10:12:24Z</time>
      </trkpt>
      <trkpt lat="44.24558" lon="0.68334">
        <ele>65.0263672</ele>
        <time>2014-01-11T10:12:34Z</time>
      </trkpt>
      <trkpt lat="44.24552" lon="0.68322">
        <ele>64.5456543</ele>
        <time>2014-01-11T10:12:43Z</time>
      </trkpt>
      <trkpt lat="44.24543" lon="0.68311">
        <ele>62.6229248</ele>
        <time>2014-01-11T10:12:54Z</time>
      </trkpt>
      <trkpt lat="44.24536" lon="0.68303">
        <ele>62.142334</ele>
        <time>2014-01-11T10:13:03Z</time>
      </trkpt>
      <trkpt lat="44.24529" lon="0.68292">
        <ele>61.6617432</ele>
        <time>2014-01-11T10:13:13Z</time>
      </trkpt>
      <trkpt lat="44.24523" lon="0.6828">
        <ele>62.142334</ele>
        <time>2014-01-11T10:13:22Z</time>
      </trkpt>
      <trkpt lat="44.24517" lon="0.68268">
        <ele>62.142334</ele>
        <time>2014-01-11T10:13:31Z</time>
      </trkpt>
      <trkpt lat="44.24513" lon="0.68256">
        <ele>61.1810303</ele>
        <time>2014-01-11T10:13:41Z</time>
      </trkpt>
      <trkpt lat="44.24507" lon="0.68244">
        <ele>58.2971191</ele>
        <time>2014-01-11T10:13:51Z</time>
      </trkpt>
      <trkpt lat="44.24499" lon="0.68235">
        <ele>59.2584229</ele>
        <time>2014-01-11T10:14:01Z</time>
      </trkpt>
      <trkpt lat="44.2449" lon="0.68228">
        <ele>59.2584229</ele>
        <time>2014-01-11T10:14:11Z</time>
      </trkpt>
      <trkpt lat="44.2448" lon="0.6822">
        <ele>58.77771</ele>
        <time>2014-01-11T10:14:21Z</time>
      </trkpt>
      <trkpt lat="44.2447" lon="0.68211">
        <ele>58.77771</ele>
        <time>2014-01-11T10:14:31Z</time>
      </trkpt>
      <trkpt lat="44.24458" lon="0.68201">
        <ele>58.77771</ele>
        <time>2014-01-11T10:14:42Z</time>
      </trkpt>
      <trkpt lat="44.24449" lon="0.68195">
        <ele>58.2971191</ele>
        <time>2014-01-11T10:14:51Z</time>
      </trkpt>
      <trkpt lat="44.24437" lon="0.68193">
        <ele>57.8165283</ele>
        <time>2014-01-11T10:15:00Z</time>
      </trkpt>
      <trkpt lat="44.24427" lon="0.6819">
        <ele>56.3745117</ele>
        <time>2014-01-11T10:15:09Z</time>
      </trkpt>
      <trkpt lat="44.24417" lon="0.68186">
        <ele>57.3358154</ele>
        <time>2014-01-11T10:15:18Z</time>
      </trkpt>
      <trkpt lat="44.24412" lon="0.68177">
        <ele>56.8551025</ele>
        <time>2014-01-11T10:15:26Z</time>
      </trkpt>
      <trkpt lat="44.24406" lon="0.68165">
        <ele>58.2971191</ele>
        <time>2014-01-11T10:15:34Z</time>
      </trkpt>
      <trkpt lat="44.24398" lon="0.68158">
        <ele>59.7391357</ele>
        <time>2014-01-11T10:15:44Z</time>
      </trkpt>
      <trkpt lat="44.2439" lon="0.68149">
        <ele>60.7003174</ele>
        <time>2014-01-11T10:15:54Z</time>
      </trkpt>
      <trkpt lat="44.2438" lon="0.68141">
        <ele>60.7003174</ele>
        <time>2014-01-11T10:16:04Z</time>
      </trkpt>
      <trkpt lat="44.2437" lon="0.68133">
        <ele>59.7391357</ele>
        <time>2014-01-11T10:16:16Z</time>
      </trkpt>
      <trkpt lat="44.2436" lon="0.68128">
        <ele>60.2197266</ele>
        <time>2014-01-11T10:16:33Z</time>
      </trkpt>
      <trkpt lat="44.24348" lon="0.68125">
        <ele>59.2584229</ele>
        <time>2014-01-11T10:16:45Z</time>
      </trkpt>
      <trkpt lat="44.24342" lon="0.68118">
        <ele>61.1810303</ele>
        <time>2014-01-11T10:17:04Z</time>
      </trkpt>
      <trkpt lat="44.24332" lon="0.68111">
        <ele>60.7003174</ele>
        <time>2014-01-11T10:17:13Z</time>
      </trkpt>
      <trkpt lat="44.24322" lon="0.68108">
        <ele>60.2197266</ele>
        <time>2014-01-11T10:17:23Z</time>
      </trkpt>
      <trkpt lat="44.24311" lon="0.68101">
        <ele>59.7391357</ele>
        <time>2014-01-11T10:17:34Z</time>
      </trkpt>
      <trkpt lat="44.24302" lon="0.68096">
        <ele>58.77771</ele>
        <time>2014-01-11T10:17:43Z</time>
      </trkpt>
      <trkpt lat="44.24292" lon="0.68091">
        <ele>59.2584229</ele>
        <time>2014-01-11T10:17:54Z</time>
      </trkpt>
      <trkpt lat="44.24284" lon="0.68087">
        <ele>58.2971191</ele>
        <time>2014-01-11T10:18:04Z</time>
      </trkpt>
      <trkpt lat="44.24274" lon="0.68083">
        <ele>56.8551025</ele>
        <time>2014-01-11T10:18:15Z</time>
      </trkpt>
      <trkpt lat="44.24265" lon="0.68078">
        <ele>55.8937988</ele>
        <time>2014-01-11T10:18:25Z</time>
      </trkpt>
      <trkpt lat="44.24258" lon="0.68072">
        <ele>55.8937988</ele>
        <time>2014-01-11T10:18:35Z</time>
      </trkpt>
      <trkpt lat="44.24251" lon="0.68064">
        <ele>59.7391357</ele>
        <time>2014-01-11T10:18:43Z</time>
      </trkpt>
      <trkpt lat="44.24243" lon="0.68059">
        <ele>59.7391357</ele>
        <time>2014-01-11T10:18:53Z</time>
      </trkpt>
      <trkpt lat="44.24234" lon="0.68056">
        <ele>58.2971191</ele>
        <time>2014-01-11T10:19:03Z</time>
      </trkpt>
      <trkpt lat="44.24227" lon="0.68048">
        <ele>58.2971191</ele>
        <time>2014-01-11T10:19:13Z</time>
      </trkpt>
      <trkpt lat="44.24218" lon="0.6804">
        <ele>58.2971191</ele>
        <time>2014-01-11T10:19:23Z</time>
      </trkpt>
      <trkpt lat="44.24209" lon="0.68034">
        <ele>56.8551025</ele>
        <time>2014-01-11T10:19:34Z</time>
      </trkpt>
      <trkpt lat="44.24198" lon="0.68034">
        <ele>55.8937988</ele>
        <time>2014-01-11T10:19:48Z</time>
      </trkpt>
      <trkpt lat="44.24187" lon="0.68032">
        <ele>54.932373</ele>
        <time>2014-01-11T10:19:59Z</time>
      </trkpt>
      <trkpt lat="44.24177" lon="0.68028">
        <ele>53.9711914</ele>
        <time>2014-01-11T10:20:09Z</time>
      </trkpt>
      <trkpt lat="44.24168" lon="0.68025">
        <ele>52.048584</ele>
        <time>2014-01-11T10:20:18Z</time>
      </trkpt>
      <trkpt lat="44.2416" lon="0.68024">
        <ele>51.5678711</ele>
        <time>2014-01-11T10:20:29Z</time>
      </trkpt>
      <trkpt lat="44.2415" lon="0.68023">
        <ele>52.5291748</ele>
        <time>2014-01-11T10:20:47Z</time>
      </trkpt>
      <trkpt lat="44.24141" lon="0.68016">
        <ele>53.4904785</ele>
        <time>2014-01-11T10:21:19Z</time>
      </trkpt>
      <trkpt lat="44.24131" lon="0.68011">
        <ele>53.0097656</ele>
        <time>2014-01-11T10:21:31Z</time>
      </trkpt>
      <trkpt lat="44.2412" lon="0.68008">
        <ele>53.9711914</ele>
        <time>2014-01-11T10:21:42Z</time>
      </trkpt>
      <trkpt lat="44.2411" lon="0.68004">
        <ele>53.4904785</ele>
        <time>2014-01-11T10:21:53Z</time>
      </trkpt>
      <trkpt lat="44.241" lon="0.68004">
        <ele>52.5291748</ele>
        <time>2014-01-11T10:22:05Z</time>
      </trkpt>
      <trkpt lat="44.2409" lon="0.68002">
        <ele>51.5678711</ele>
        <time>2014-01-11T10:22:15Z</time>
      </trkpt>
      <trkpt lat="44.24079" lon="0.68">
        <ele>52.5291748</ele>
        <time>2014-01-11T10:22:26Z</time>
      </trkpt>
      <trkpt lat="44.2407" lon="0.67995">
        <ele>52.5291748</ele>
        <time>2014-01-11T10:22:36Z</time>
      </trkpt>
      <trkpt lat="44.24061" lon="0.67991">
        <ele>52.5291748</ele>
        <time>2014-01-11T10:22:46Z</time>
      </trkpt>
      <trkpt lat="44.24051" lon="0.67984">
        <ele>52.5291748</ele>
        <time>2014-01-11T10:22:56Z</time>
      </trkpt>
      <trkpt lat="44.24043" lon="0.67981">
        <ele>52.5291748</ele>
        <time>2014-01-11T10:23:06Z</time>
      </trkpt>
      <trkpt lat="44.24032" lon="0.67976">
        <ele>53.0097656</ele>
        <time>2014-01-11T10:23:17Z</time>
      </trkpt>
      <trkpt lat="44.24021" lon="0.67976">
        <ele>55.4130859</ele>
        <time>2014-01-11T10:23:27Z</time>
      </trkpt>
      <trkpt lat="44.24013" lon="0.67973">
        <ele>53.9711914</ele>
        <time>2014-01-11T10:23:38Z</time>
      </trkpt>
      <trkpt lat="44.24004" lon="0.6797">
        <ele>54.932373</ele>
        <time>2014-01-11T10:23:49Z</time>
      </trkpt>
      <trkpt lat="44.23996" lon="0.67966">
        <ele>52.5291748</ele>
        <time>2014-01-11T10:24:00Z</time>
      </trkpt>
      <trkpt lat="44.23989" lon="0.67957">
        <ele>53.0097656</ele>
        <time>2014-01-11T10:24:11Z</time>
      </trkpt>
      <trkpt lat="44.23982" lon="0.67946">
        <ele>53.4904785</ele>
        <time>2014-01-11T10:24:23Z</time>
      </trkpt>
      <trkpt lat="44.23976" lon="0.67933">
        <ele>54.4517822</ele>
        <time>2014-01-11T10:24:36Z</time>
      </trkpt>
      <trkpt lat="44.23966" lon="0.67926">
        <ele>55.4130859</ele>
        <time>2014-01-11T10:24:49Z</time>
      </trkpt>
      <trkpt lat="44.23956" lon="0.67919">
        <ele>56.3745117</ele>
        <time>2014-01-11T10:25:01Z</time>
      </trkpt>
      <trkpt lat="44.23945" lon="0.6791">
        <ele>59.7391357</ele>
        <time>2014-01-11T10:25:12Z</time>
      </trkpt>
      <trkpt lat="44.23933" lon="0.67905">
        <ele>59.7391357</ele>
        <time>2014-01-11T10:25:25Z</time>
      </trkpt>
      <trkpt lat="44.23924" lon="0.679">
        <ele>58.77771</ele>
        <time>2014-01-11T10:25:38Z</time>
      </trkpt>
      <trkpt lat="44.23916" lon="0.67902">
        <ele>58.2971191</ele>
        <time>2014-01-11T10:26:17Z</time>
      </trkpt>
      <trkpt lat="44.23908" lon="0.67911">
        <ele>58.2971191</ele>
        <time>2014-01-11T10:27:02Z</time>
      </trkpt>
      <trkpt lat="44.23905" lon="0.67924">
        <ele>56.3745117</ele>
        <time>2014-01-11T10:27:13Z</time>
      </trkpt>
      <trkpt lat="44.23903" lon="0.67936">
        <ele>55.4130859</ele>
        <time>2014-01-11T10:27:23Z</time>
      </trkpt>
      <trkpt lat="44.23898" lon="0.67948">
        <ele>54.932373</ele>
        <time>2014-01-11T10:27:33Z</time>
      </trkpt>
      <trkpt lat="44.23892" lon="0.67954">
        <ele>54.4517822</ele>
        <time>2014-01-11T10:27:43Z</time>
      </trkpt>
      <trkpt lat="44.23883" lon="0.67955">
        <ele>56.8551025</ele>
        <time>2014-01-11T10:27:54Z</time>
      </trkpt>
      <trkpt lat="44.23874" lon="0.67954">
        <ele>58.2971191</ele>
        <time>2014-01-11T10:28:04Z</time>
      </trkpt>
      <trkpt lat="44.23864" lon="0.67954">
        <ele>57.8165283</ele>
        <time>2014-01-11T10:28:15Z</time>
      </trkpt>
      <trkpt lat="44.23853" lon="0.67952">
        <ele>61.1810303</ele>
        <time>2014-01-11T10:28:25Z</time>
      </trkpt>
      <trkpt lat="44.23843" lon="0.6795">
        <ele>65.0263672</ele>
        <time>2014-01-11T10:28:35Z</time>
      </trkpt>
      <trkpt lat="44.23833" lon="0.67951">
        <ele>64.5456543</ele>
        <time>2014-01-11T10:28:44Z</time>
      </trkpt>
      <trkpt lat="44.23825" lon="0.67953">
        <ele>63.1036377</ele>
        <time>2014-01-11T10:28:53Z</time>
      </trkpt>
      <trkpt lat="44.23815" lon="0.67953">
        <ele>64.0650635</ele>
        <time>2014-01-11T10:29:03Z</time>
      </trkpt>
      <trkpt lat="44.23806" lon="0.67953">
        <ele>63.5843506</ele>
        <time>2014-01-11T10:29:12Z</time>
      </trkpt>
      <trkpt lat="44.23797" lon="0.67955">
        <ele>62.142334</ele>
        <time>2014-01-11T10:29:21Z</time>
      </trkpt>
      <trkpt lat="44.23788" lon="0.67956">
        <ele>58.2971191</ele>
        <time>2014-01-11T10:29:30Z</time>
      </trkpt>
      <trkpt lat="44.23779" lon="0.67955">
        <ele>57.8165283</ele>
        <time>2014-01-11T10:29:38Z</time>
      </trkpt>
      <trkpt lat="44.2377" lon="0.67952">
        <ele>58.2971191</ele>
        <time>2014-01-11T10:29:47Z</time>
      </trkpt>
      <trkpt lat="44.23761" lon="0.67948">
        <ele>56.8551025</ele>
        <time>2014-01-11T10:29:57Z</time>
      </trkpt>
      <trkpt lat="44.23751" lon="0.67944">
        <ele>58.77771</ele>
        <time>2014-01-11T10:30:06Z</time>
      </trkpt>
      <trkpt lat="44.2374" lon="0.67939">
        <ele>60.2197266</ele>
        <time>2014-01-11T10:30:17Z</time>
      </trkpt>
      <trkpt lat="44.23732" lon="0.67935">
        <ele>59.2584229</ele>
        <time>2014-01-11T10:30:26Z</time>
      </trkpt>
      <trkpt lat="44.23723" lon="0.67933">
        <ele>58.77771</ele>
        <time>2014-01-11T10:30:35Z</time>
      </trkpt>
      <trkpt lat="44.23712" lon="0.67928">
        <ele>58.77771</ele>
        <time>2014-01-11T10:30:45Z</time>
      </trkpt>
      <trkpt lat="44.23702" lon="0.67925">
        <ele>58.2971191</ele>
        <time>2014-01-11T10:30:55Z</time>
      </trkpt>
      <trkpt lat="44.23693" lon="0.67922">
        <ele>58.77771</ele>
        <time>2014-01-11T10:31:05Z</time>
      </trkpt>
      <trkpt lat="44.23683" lon="0.6792">
        <ele>58.77771</ele>
        <time>2014-01-11T10:31:15Z</time>
      </trkpt>
      <trkpt lat="44.23673" lon="0.67919">
        <ele>58.2971191</ele>
        <time>2014-01-11T10:31:25Z</time>
      </trkpt>
      <trkpt lat="44.23664" lon="0.67914">
        <ele>58.2971191</ele>
        <time>2014-01-11T10:31:37Z</time>
      </trkpt>
      <trkpt lat="44.23654" lon="0.67914">
        <ele>58.2971191</ele>
        <time>2014-01-11T10:31:47Z</time>
      </trkpt>
      <trkpt lat="44.23645" lon="0.67915">
        <ele>58.77771</ele>
        <time>2014-01-11T10:31:56Z</time>
      </trkpt>
      <trkpt lat="44.23635" lon="0.67916">
        <ele>59.2584229</ele>
        <time>2014-01-11T10:32:05Z</time>
      </trkpt>
      <trkpt lat="44.23624" lon="0.67918">
        <ele>59.7391357</ele>
        <time>2014-01-11T10:32:14Z</time>
      </trkpt>
      <trkpt lat="44.23615" lon="0.6792">
        <ele>59.2584229</ele>
        <time>2014-01-11T10:32:23Z</time>
      </trkpt>
      <trkpt lat="44.23606" lon="0.67922">
        <ele>59.7391357</ele>
        <time>2014-01-11T10:32:32Z</time>
      </trkpt>
      <trkpt lat="44.23596" lon="0.67927">
        <ele>59.2584229</ele>
        <time>2014-01-11T10:32:41Z</time>
      </trkpt>
      <trkpt lat="44.23587" lon="0.67931">
        <ele>59.7391357</ele>
        <time>2014-01-11T10:32:49Z</time>
      </trkpt>
      <trkpt lat="44.2358" lon="0.67939">
        <ele>59.7391357</ele>
        <time>2014-01-11T10:32:58Z</time>
      </trkpt>
      <trkpt lat="44.23574" lon="0.67951">
        <ele>57.8165283</ele>
        <time>2014-01-11T10:33:07Z</time>
      </trkpt>
      <trkpt lat="44.2357" lon="0.67963">
        <ele>57.8165283</ele>
        <time>2014-01-11T10:33:16Z</time>
      </trkpt>
      <trkpt lat="44.23563" lon="0.67972">
        <ele>58.2971191</ele>
        <time>2014-01-11T10:33:26Z</time>
      </trkpt>
      <trkpt lat="44.23553" lon="0.67976">
        <ele>58.77771</ele>
        <time>2014-01-11T10:33:36Z</time>
      </trkpt>
      <trkpt lat="44.23543" lon="0.67977">
        <ele>59.2584229</ele>
        <time>2014-01-11T10:33:45Z</time>
      </trkpt>
      <trkpt lat="44.23533" lon="0.67978">
        <ele>59.7391357</ele>
        <time>2014-01-11T10:33:55Z</time>
      </trkpt>
      <trkpt lat="44.23524" lon="0.67978">
        <ele>59.7391357</ele>
        <time>2014-01-11T10:34:05Z</time>
      </trkpt>
      <trkpt lat="44.23515" lon="0.67978">
        <ele>60.2197266</ele>
        <time>2014-01-11T10:34:15Z</time>
      </trkpt>
      <trkpt lat="44.23507" lon="0.67985">
        <ele>60.2197266</ele>
        <time>2014-01-11T10:34:27Z</time>
      </trkpt>
      <trkpt lat="44.23498" lon="0.67991">
        <ele>60.7003174</ele>
        <time>2014-01-11T10:34:38Z</time>
      </trkpt>
      <trkpt lat="44.23489" lon="0.67994">
        <ele>60.2197266</ele>
        <time>2014-01-11T10:34:48Z</time>
      </trkpt>
      <trkpt lat="44.2348" lon="0.67998">
        <ele>60.2197266</ele>
        <time>2014-01-11T10:34:59Z</time>
      </trkpt>
      <trkpt lat="44.2347" lon="0.68002">
        <ele>60.7003174</ele>
        <time>2014-01-11T10:35:09Z</time>
      </trkpt>
      <trkpt lat="44.23461" lon="0.68005">
        <ele>60.7003174</ele>
        <time>2014-01-11T10:35:18Z</time>
      </trkpt>
      <trkpt lat="44.23451" lon="0.68007">
        <ele>60.7003174</ele>
        <time>2014-01-11T10:35:27Z</time>
      </trkpt>
      <trkpt lat="44.23442" lon="0.68008">
        <ele>60.7003174</ele>
        <time>2014-01-11T10:35:36Z</time>
      </trkpt>
      <trkpt lat="44.23433" lon="0.68007">
        <ele>60.7003174</ele>
        <time>2014-01-11T10:35:44Z</time>
      </trkpt>
      <trkpt lat="44.23426" lon="0.6802">
        <ele>61.6617432</ele>
        <time>2014-01-11T10:35:51Z</time>
      </trkpt>
      <trkpt lat="44.23418" lon="0.68017">
        <ele>63.1036377</ele>
        <time>2014-01-11T10:35:57Z</time>
      </trkpt>
      <trkpt lat="44.23412" lon="0.68007">
        <ele>64.5456543</ele>
        <time>2014-01-11T10:36:06Z</time>
      </trkpt>
      <trkpt lat="44.23403" lon="0.68009">
        <ele>65.0263672</ele>
        <time>2014-01-11T10:36:18Z</time>
      </trkpt>
      <trkpt lat="44.23394" lon="0.68015">
        <ele>64.5456543</ele>
        <time>2014-01-11T10:36:27Z</time>
      </trkpt>
      <trkpt lat="44.23391" lon="0.68031">
        <ele>62.6229248</ele>
        <time>2014-01-11T10:36:36Z</time>
      </trkpt>
      <trkpt lat="44.23391" lon="0.68045">
        <ele>58.2971191</ele>
        <time>2014-01-11T10:36:44Z</time>
      </trkpt>
      <trkpt lat="44.23389" lon="0.68057">
        <ele>54.4517822</ele>
        <time>2014-01-11T10:36:53Z</time>
      </trkpt>
      <trkpt lat="44.23387" lon="0.68075">
        <ele>52.048584</ele>
        <time>2014-01-11T10:37:04Z</time>
      </trkpt>
      <trkpt lat="44.23386" lon="0.68091">
        <ele>52.5291748</ele>
        <time>2014-01-11T10:37:14Z</time>
      </trkpt>
      <trkpt lat="44.23384" lon="0.68105">
        <ele>53.9711914</ele>
        <time>2014-01-11T10:37:23Z</time>
      </trkpt>
      <trkpt lat="44.2338" lon="0.68118">
        <ele>55.4130859</ele>
        <time>2014-01-11T10:37:33Z</time>
      </trkpt>
      <trkpt lat="44.23373" lon="0.68128">
        <ele>56.3745117</ele>
        <time>2014-01-11T10:37:42Z</time>
      </trkpt>
      <trkpt lat="44.23366" lon="0.68137">
        <ele>57.8165283</ele>
        <time>2014-01-11T10:37:50Z</time>
      </trkpt>
      <trkpt lat="44.23359" lon="0.68145">
        <ele>58.2971191</ele>
        <time>2014-01-11T10:37:58Z</time>
      </trkpt>
      <trkpt lat="44.23351" lon="0.68146">
        <ele>59.2584229</ele>
        <time>2014-01-11T10:38:07Z</time>
      </trkpt>
      <trkpt lat="44.23342" lon="0.68148">
        <ele>58.2971191</ele>
        <time>2014-01-11T10:38:16Z</time>
      </trkpt>
      <trkpt lat="44.23333" lon="0.68155">
        <ele>57.8165283</ele>
        <time>2014-01-11T10:38:25Z</time>
      </trkpt>
      <trkpt lat="44.23326" lon="0.68165">
        <ele>57.8165283</ele>
        <time>2014-01-11T10:38:34Z</time>
      </trkpt>
      <trkpt lat="44.2332" lon="0.68176">
        <ele>55.8937988</ele>
        <time>2014-01-11T10:38:43Z</time>
      </trkpt>
      <trkpt lat="44.23316" lon="0.68188">
        <ele>56.3745117</ele>
        <time>2014-01-11T10:38:52Z</time>
      </trkpt>
      <trkpt lat="44.2331" lon="0.68192">
        <ele>56.8551025</ele>
        <time>2014-01-11T10:39:02Z</time>
      </trkpt>
      <trkpt lat="44.23303" lon="0.68199">
        <ele>54.932373</ele>
        <time>2014-01-11T10:39:18Z</time>
      </trkpt>
      <trkpt lat="44.23296" lon="0.68208">
        <ele>54.932373</ele>
        <time>2014-01-11T10:39:27Z</time>
      </trkpt>
      <trkpt lat="44.23288" lon="0.68215">
        <ele>54.932373</ele>
        <time>2014-01-11T10:39:36Z</time>
      </trkpt>
      <trkpt lat="44.23282" lon="0.68226">
        <ele>54.932373</ele>
        <time>2014-01-11T10:39:46Z</time>
      </trkpt>
      <trkpt lat="44.23276" lon="0.68238">
        <ele>54.932373</ele>
        <time>2014-01-11T10:39:56Z</time>
      </trkpt>
      <trkpt lat="44.23273" lon="0.68247">
        <ele>55.8937988</ele>
        <time>2014-01-11T10:40:04Z</time>
      </trkpt>
    </trkseg>
  </trk>
</gpx>